Observation data for Canadian on 04/22/2019      Previous  Date  Next       Current Mesonet Observations  Soil Data  Daily Summary Page  Observations in Plain Language
KCA1 220500Z 16013KT 20/14 A2979 RMK A01 T01970139  RH  069%=      5-min Rain = 0
KCA1 220501Z 17014KT 20/14 A2979 RMK A01 T01970139  RH  069%=      5-min Rain = 0
KCA1 220502Z 16013KT 20/14 A2979 RMK A01 T01980139  RH  069%=      5-min Rain = 0
KCA1 220503Z 16013KT 20/14 A2979 RMK A01 T01980139  RH  069%=      5-min Rain = 0
KCA1 220504Z 16012KT 20/14 A2979 RMK A01 T01980140  RH  069%=      5-min Rain = 0
KCA1 220505Z 17011KT 20/14 A2979 RMK A01 T01980140  RH  069%=      5-min Rain = 0
KCA1 220506Z 16011KT 20/14 A2979 RMK A01 T01960139  RH  070%=      5-min Rain = 0
KCA1 220507Z 17011KT 20/14 A2979 RMK A01 T01960140  RH  070%=      5-min Rain = 0
KCA1 220508Z 17010KT 20/14 A2979 RMK A01 T01950139  RH  070%=      5-min Rain = 0
KCA1 220509Z 17011KT 20/14 A2979 RMK A01 T01950139  RH  070%=      5-min Rain = 0
KCA1 220510Z 16012KT 19/14 A2979 RMK A01 T01940140  RH  071%=      5-min Rain = 0
KCA1 220511Z 17011KT 20/14 A2979 RMK A01 T01950140  RH  071%=      5-min Rain = 0
KCA1 220512Z 17013KT 19/14 A2979 RMK A01 T01940140  RH  071%=      5-min Rain = 0
KCA1 220513Z 17013KT 19/14 A2978 RMK A01 T01940140  RH  071%=      5-min Rain = 0
KCA1 220514Z 17011KT 20/14 A2978 RMK A01 T01950140  RH  071%=      5-min Rain = 0
KCA1 220515Z 17009KT 20/14 A2979 RMK A01 T01950140  RH  070%=      5-min Rain = 0
KCA1 220516Z 17010KT 19/14 A2978 RMK A01 T01940140  RH  071%=      5-min Rain = 0
KCA1 220517Z 17010KT 19/14 A2978 RMK A01 T01930139  RH  071%=      5-min Rain = 0
KCA1 220518Z 17012KT 19/14 A2978 RMK A01 T01930140  RH  071%=      5-min Rain = 0
KCA1 220519Z 17011G16KT 19/14 A2978 RMK A01 T01930140  RH  071%=      5-min Rain = 0
KCA1 220520Z 18010KT 19/14 A2978 RMK A01 T01930140  RH  071%=      5-min Rain = 0
KCA1 220521Z 17010KT 19/14 A2978 RMK A01 T01930140  RH  071%=      5-min Rain = 0
KCA1 220522Z 17011KT 19/14 A2978 RMK A01 T01920139  RH  071%=      5-min Rain = 0
KCA1 220523Z 17009KT 19/14 A2978 RMK A01 T01920140  RH  072%=      5-min Rain = 0
KCA1 220524Z 17010KT 19/14 A2979 RMK A01 T01910139  RH  072%=      5-min Rain = 0
KCA1 220525Z 17009KT 19/14 A2979 RMK A01 T01910139  RH  072%=      5-min Rain = 0
KCA1 220526Z 17011KT 19/14 A2979 RMK A01 T01910139  RH  072%=      5-min Rain = 0
KCA1 220527Z 17010KT 19/14 A2979 RMK A01 T01910139  RH  072%=      5-min Rain = 0
KCA1 220528Z 17011G16KT 19/14 A2979 RMK A01 T01910139  RH  072%=      5-min Rain = 0
KCA1 220529Z 17011KT 19/14 A2979 RMK A01 T01920139  RH  072%=      5-min Rain = 0
KCA1 220530Z 17009KT 19/14 A2979 RMK A01 T01920140  RH  072%=      5-min Rain = 0
KCA1 220531Z 17009G14KT 19/14 A2979 RMK A01 T01920139  RH  072%=      5-min Rain = 0
KCA1 220532Z 17010KT 19/14 A2979 RMK A01 T01920139  RH  072%=      5-min Rain = 0
KCA1 220533Z 17008KT 19/14 A2979 RMK A01 T01910139  RH  072%=      5-min Rain = 0
KCA1 220534Z 17010KT 19/14 A2979 RMK A01 T01910139  RH  072%=      5-min Rain = 0
KCA1 220535Z 18011KT 19/14 A2979 RMK A01 T01910139  RH  072%=      5-min Rain = 0
KCA1 220536Z 17008KT 19/14 A2979 RMK A01 T01910139  RH  072%=      5-min Rain = 0
KCA1 220537Z 18007KT 19/14 A2979 RMK A01 T01920139  RH  072%=      5-min Rain = 0
KCA1 220538Z 19007KT 19/14 A2979 RMK A01 T01910139  RH  072%=      5-min Rain = 0
KCA1 220539Z 29008G13KT 19/14 A2981 RMK A01 T01900139  RH  072%=      5-min Rain = 0
KCA1 220540Z 31013KT 19/14 A2981 RMK A01 T01890137  RH  072%=      5-min Rain = 0
KCA1 220541Z 32017G22KT 19/14 A2982 RMK A01 T01860135  RH  072%=      5-min Rain = 0
KCA1 220542Z 33018KT 19/13 A2982 RMK A01 T01850132  RH  071%=      5-min Rain = 0
KCA1 220543Z 31019G25KT 19/13 A2982 RMK A01 T01870132  RH  070%=      5-min Rain = 0
KCA1 220544Z 28010G16KT 19/14 A2982 RMK A01 T01900135  RH  070%=      5-min Rain = 0
KCA1 220545Z 19020G26KT 19/14 A298 RMK A01 T01930137  RH  070%=      5-min Rain = 0
KCA1 220546Z 18025G31KT 20/14 A2979 RMK A01 T01990139  RH  068%=      5-min Rain = 0
KCA1 220547Z 19017G22KT 20/14 A2979 RMK A01 T02040140  RH  067%=      5-min Rain = 0
KCA1 220548Z 20017G24KT 21/14 A298 RMK A01 T02060138  RH  065%=      5-min Rain = 0
KCA1 220549Z 23014KT 21/14 A2982 RMK A01 T02080135  RH  063%=      5-min Rain = 0
KCA1 220550Z 29015G21KT 21/13 A2983 RMK A01 T02090133  RH  062%=      5-min Rain = 0
KCA1 220551Z 31014KT 21/13 A2983 RMK A01 T02080131  RH  061%=      5-min Rain = 0
KCA1 220552Z 31010KT 20/13 A2984 RMK A01 T02040130  RH  062%=      5-min Rain = 0
KCA1 220553Z 31010KT 20/13 A2984 RMK A01 T02010129  RH  063%=      5-min Rain = 0
KCA1 220554Z 28007KT 20/13 A2983 RMK A01 T01980128  RH  064%=      5-min Rain = 0
KCA1 220555Z 24011KT 20/13 A2983 RMK A01 T01970127  RH  064%=      5-min Rain = 0
KCA1 220556Z 27007KT 20/13 A2983 RMK A01 T02000128  RH  063%=      5-min Rain = 0
KCA1 220557Z 28011KT 21/13 A2983 RMK A01 T02050129  RH  062%=      5-min Rain = 0
KCA1 220558Z 31009KT 21/13 A2983 RMK A01 T02060129  RH  061%=      5-min Rain = 0
KCA1 220559Z 31007KT 20/13 A2984 RMK A01 T02040127  RH  061%=      5-min Rain = 0
KCA1 220600Z 30005KT 20/13 A2984 RMK A01 T02020126  RH  062%=      5-min Rain = 0
KCA1 220601Z 33003KT 20/13 A2984 RMK A01 T01990125  RH  062%=      5-min Rain = 0
KCA1 220602Z 33002KT 20/13 A2984 RMK A01 T01970126  RH  063%=      5-min Rain = 0
KCA1 220603Z 32002KT 20/13 A2984 RMK A01 T01960126  RH  064%=      5-min Rain = 0
KCA1 220604Z 34003KT 20/13 A2984 RMK A01 T01950125  RH  064%=      5-min Rain = 0
KCA1 220605Z 33004KT 19/13 A2984 RMK A01 T01930125  RH  065%=      5-min Rain = 0
KCA1 220606Z 32003KT 19/13 A2984 RMK A01 T01920125  RH  065%=      5-min Rain = 0
KCA1 220607Z 33001KT 19/13 A2984 RMK A01 T01900125  RH  066%=      5-min Rain = 0
KCA1 220608Z 22000KT 19/13 A2983 RMK A01 T01900125  RH  066%=      5-min Rain = 0
KCA1 220609Z 18002KT 19/13 A2983 RMK A01 T01890125  RH  066%=      5-min Rain = 0
KCA1 220610Z 19003KT 19/12 A2983 RMK A01 T01890124  RH  066%=      5-min Rain = 0
KCA1 220611Z 18003KT 19/12 A2983 RMK A01 T01910124  RH  065%=      5-min Rain = 0
KCA1 220612Z 19004KT 19/12 A2983 RMK A01 T01910123  RH  065%=      5-min Rain = 0
KCA1 220613Z 17003KT 19/12 A2983 RMK A01 T01920121  RH  064%=      5-min Rain = 0
KCA1 220614Z 18003KT 19/12 A2983 RMK A01 T01920123  RH  064%=      5-min Rain = 0
KCA1 220615Z 20003KT 19/12 A2983 RMK A01 T01920124  RH  065%=      5-min Rain = 0
KCA1 220616Z 21003KT 19/12 A2983 RMK A01 T01910123  RH  065%=      5-min Rain = 0
KCA1 220617Z 23003KT 19/12 A2983 RMK A01 T01910123  RH  065%=      5-min Rain = 0
KCA1 220618Z 25003KT 19/12 A2983 RMK A01 T01890121  RH  065%=      5-min Rain = 0
KCA1 220619Z 25003KT 19/12 A2983 RMK A01 T01890121  RH  065%=      5-min Rain = 0
KCA1 220620Z 24003KT 19/12 A2983 RMK A01 T01890121  RH  064%=      5-min Rain = 0
KCA1 220621Z 23003KT 19/12 A2983 RMK A01 T01890120  RH  064%=      5-min Rain = 0
KCA1 220622Z 22003KT 19/12 A2983 RMK A01 T01890120  RH  064%=      5-min Rain = 0
KCA1 220623Z 21003KT 19/12 A2983 RMK A01 T01890120  RH  064%=      5-min Rain = 0
KCA1 220624Z 20003KT 19/12 A2983 RMK A01 T01880120  RH  065%=      5-min Rain = 0
KCA1 220625Z 19003KT 19/12 A2983 RMK A01 T01890121  RH  064%=      5-min Rain = 0
KCA1 220626Z 19002KT 19/12 A2983 RMK A01 T01910121  RH  064%=      5-min Rain = 0
KCA1 220627Z 22002KT 19/12 A2984 RMK A01 T01930121  RH  063%=      5-min Rain = 0
KCA1 220628Z 25002KT 19/12 A2984 RMK A01 T01930121  RH  063%=      5-min Rain = 0
KCA1 220629Z 26002KT 19/12 A2984 RMK A01 T01930121  RH  063%=      5-min Rain = 0
KCA1 220630Z 29003KT 19/12 A2984 RMK A01 T01930121  RH  063%=      5-min Rain = 0
KCA1 220631Z 32005KT 19/12 A2984 RMK A01 T01900117  RH  063%=      5-min Rain = 0
KCA1 220632Z 33007KT 18/11 A2984 RMK A01 T01820114  RH  065%=      5-min Rain = 0
KCA1 220633Z 34008KT 18/11 A2984 RMK A01 T01750112  RH  066%=      5-min Rain = 0
KCA1 220634Z 35007KT 17/11 A2984 RMK A01 T01700111  RH  068%=      5-min Rain = 0
KCA1 220635Z 35008KT 17/11 A2984 RMK A01 T01680110  RH  068%=      5-min Rain = 0
KCA1 220636Z 36009KT 17/10 A2984 RMK A01 T01660101  RH  065%=      5-min Rain = 0
KCA1 220637Z 00010KT 16/09 A2984 RMK A01 T01640094  RH  063%=      5-min Rain = 0
KCA1 220638Z 00011KT 16/09 A2984 RMK A01 T01610085  RH  061%=      5-min Rain = 0
KCA1 220639Z 00012KT 16/08 A2984 RMK A01 T01600083  RH  060%=      5-min Rain = 0
KCA1 220640Z 00011KT 16/08 A2984 RMK A01 T01580081  RH  060%=      5-min Rain = 0
KCA1 220641Z 01011KT 16/08 A2984 RMK A01 T01570080  RH  060%=      5-min Rain = 0
KCA1 220642Z 01013KT 16/08 A2984 RMK A01 T01570078  RH  059%=      5-min Rain = 0
KCA1 220643Z 01013KT 16/08 A2984 RMK A01 T01560076  RH  059%=      5-min Rain = 0
KCA1 220644Z 01012KT 16/08 A2984 RMK A01 T01560076  RH  059%=      5-min Rain = 0
KCA1 220645Z 01011KT 16/08 A2984 RMK A01 T01560076  RH  059%=      5-min Rain = 0
KCA1 220646Z 01012KT 15/08 A2984 RMK A01 T01540075  RH  059%=      5-min Rain = 0
KCA1 220647Z 01013KT 15/08 A2984 RMK A01 T01540075  RH  059%=      5-min Rain = 0
KCA1 220648Z 01012KT 15/07 A2984 RMK A01 T01540074  RH  059%=      5-min Rain = 0
KCA1 220649Z 01013KT 15/07 A2984 RMK A01 T01530074  RH  059%=      5-min Rain = 0
KCA1 220650Z 01013KT 15/07 A2984 RMK A01 T01530074  RH  059%=      5-min Rain = 0
KCA1 220651Z 01013KT 15/07 A2984 RMK A01 T01540073  RH  059%=      5-min Rain = 0
KCA1 220652Z 01013KT 15/07 A2984 RMK A01 T01540073  RH  058%=      5-min Rain = 0
KCA1 220653Z 01013KT 15/07 A2984 RMK A01 T01540073  RH  059%=      5-min Rain = 0
KCA1 220654Z 01014KT 15/07 A2984 RMK A01 T01540073  RH  058%=      5-min Rain = 0
KCA1 220655Z 01014KT 15/07 A2984 RMK A01 T01540072  RH  058%=      5-min Rain = 0
KCA1 220656Z 01014KT 15/07 A2984 RMK A01 T01540072  RH  058%=      5-min Rain = 0
KCA1 220657Z 01014KT 16/07 A2984 RMK A01 T01550072  RH  058%=      5-min Rain = 0
KCA1 220658Z 01014KT 16/07 A2984 RMK A01 T01560072  RH  058%=      5-min Rain = 0
KCA1 220659Z 01014KT 16/07 A2984 RMK A01 T01550072  RH  058%=      5-min Rain = 0
KCA1 220700Z 01013KT 16/07 A2984 RMK A01 T01550072  RH  058%=      5-min Rain = 0
KCA1 220701Z 01013KT 16/07 A2984 RMK A01 T01550072  RH  058%=      5-min Rain = 0
KCA1 220702Z 01013G18KT 15/07 A2984 RMK A01 T01540072  RH  058%=      5-min Rain = 0
KCA1 220703Z 01013KT 15/07 A2984 RMK A01 T01540072  RH  058%=      5-min Rain = 0
KCA1 220704Z 01013KT 16/07 A2984 RMK A01 T01550072  RH  058%=      5-min Rain = 0
KCA1 220705Z 01013KT 15/07 A2984 RMK A01 T01540072  RH  058%=      5-min Rain = 0
KCA1 220706Z 01013KT 15/07 A2984 RMK A01 T01530072  RH  059%=      5-min Rain = 0
KCA1 220707Z 01014KT 15/07 A2984 RMK A01 T01520072  RH  059%=      5-min Rain = 0
KCA1 220708Z 01013KT 15/07 A2984 RMK A01 T01520072  RH  059%=      5-min Rain = 0
KCA1 220709Z 01012KT 15/07 A2984 RMK A01 T01520072  RH  059%=      5-min Rain = 0
KCA1 220710Z 01014KT 15/07 A2984 RMK A01 T01520072  RH  059%=      5-min Rain = 0
KCA1 220711Z 01012KT 15/07 A2984 RMK A01 T01520072  RH  059%=      5-min Rain = 0
KCA1 220712Z 01014KT 15/07 A2984 RMK A01 T01520072  RH  059%=      5-min Rain = 0
KCA1 220713Z 01013KT 15/07 A2985 RMK A01 T01520072  RH  059%=      5-min Rain = 0
KCA1 220714Z 01013KT 15/07 A2985 RMK A01 T01510072  RH  059%=      5-min Rain = 0
KCA1 220715Z 01013KT 15/07 A2985 RMK A01 T01510073  RH  059%=      5-min Rain = 0
KCA1 220716Z 01014KT 15/07 A2985 RMK A01 T01500072  RH  060%=      5-min Rain = 0
KCA1 220717Z 01012KT 15/07 A2985 RMK A01 T01480072  RH  060%=      5-min Rain = 0
KCA1 220718Z 01012KT 15/07 A2985 RMK A01 T01480072  RH  061%=      5-min Rain = 0
KCA1 220719Z 01012KT 15/07 A2985 RMK A01 T01470072  RH  061%=      5-min Rain = 0
KCA1 220720Z 01013KT 15/07 A2985 RMK A01 T01460072  RH  061%=      5-min Rain = 0
KCA1 220721Z 01013KT 15/07 A2985 RMK A01 T01460072  RH  061%=      5-min Rain = 0
KCA1 220722Z 00013KT 15/07 A2985 RMK A01 T01450072  RH  061%=      5-min Rain = 0
KCA1 220723Z 00014KT 15/07 A2985 RMK A01 T01450072  RH  062%=      5-min Rain = 0
KCA1 220724Z 01013KT 15/07 A2985 RMK A01 T01450072  RH  062%=      5-min Rain = 0
KCA1 220725Z 01013KT 15/07 A2985 RMK A01 T01450072  RH  061%=      5-min Rain = 0
KCA1 220726Z 01014KT 15/07 A2985 RMK A01 T01450072  RH  062%=      5-min Rain = 0
KCA1 220727Z 01015KT 15/07 A2985 RMK A01 T01450072  RH  062%=      5-min Rain = 0
KCA1 220728Z 00014KT 15/07 A2985 RMK A01 T01450072  RH  062%=      5-min Rain = 0
KCA1 220729Z 01014KT 15/07 A2985 RMK A01 T01460073  RH  061%=      5-min Rain = 0
KCA1 220730Z 01014KT 15/07 A2985 RMK A01 T01460073  RH  062%=      5-min Rain = 0
KCA1 220731Z 00014KT 15/07 A2985 RMK A01 T01450073  RH  062%=      5-min Rain = 0
KCA1 220732Z 00014KT 15/07 A2985 RMK A01 T01450073  RH  062%=      5-min Rain = 0
KCA1 220733Z 00014KT 15/07 A2985 RMK A01 T01450073  RH  062%=      5-min Rain = 0
KCA1 220734Z 01014KT 14/07 A2985 RMK A01 T01440072  RH  062%=      5-min Rain = 0
KCA1 220735Z 01014KT 14/07 A2985 RMK A01 T01440073  RH  062%=      5-min Rain = 0
KCA1 220736Z 01015KT 14/07 A2985 RMK A01 T01440072  RH  062%=      5-min Rain = 0
KCA1 220737Z 01014KT 14/07 A2985 RMK A01 T01440072  RH  062%=      5-min Rain = 0
KCA1 220738Z 01014KT 14/07 A2985 RMK A01 T01430072  RH  062%=      5-min Rain = 0
KCA1 220739Z 01014KT 14/07 A2985 RMK A01 T01430072  RH  062%=      5-min Rain = 0
KCA1 220740Z 00015KT 14/07 A2985 RMK A01 T01420072  RH  063%=      5-min Rain = 0
KCA1 220741Z 00016KT 14/07 A2985 RMK A01 T01420072  RH  063%=      5-min Rain = 0
KCA1 220742Z 00016KT 14/07 A2985 RMK A01 T01420072  RH  063%=      5-min Rain = 0
KCA1 220743Z 36016KT 14/07 A2985 RMK A01 T01420072  RH  063%=      5-min Rain = 0
KCA1 220744Z 00016KT 14/07 A2985 RMK A01 T01420072  RH  063%=      5-min Rain = 0
KCA1 220745Z 00015KT 14/07 A2985 RMK A01 T01420072  RH  063%=      5-min Rain = 0
KCA1 220746Z 36016KT 14/07 A2985 RMK A01 T01410072  RH  063%=      5-min Rain = 0
KCA1 220747Z 00017KT 14/07 A2985 RMK A01 T01410073  RH  063%=      5-min Rain = 0
KCA1 220748Z 36018KT 14/07 A2985 RMK A01 T01410073  RH  063%=      5-min Rain = 0
KCA1 220749Z 36017KT 14/07 A2985 RMK A01 T01410073  RH  063%=      5-min Rain = 0
KCA1 220750Z 00018KT 14/07 A2984 RMK A01 T01410073  RH  063%=      5-min Rain = 0
KCA1 220751Z 36018KT 14/07 A2984 RMK A01 T01410073  RH  064%=      5-min Rain = 0
KCA1 220752Z 36018KT 14/07 A2984 RMK A01 T01410073  RH  064%=      5-min Rain = 0
KCA1 220753Z 36019KT 14/07 A2984 RMK A01 T01410073  RH  064%=      5-min Rain = 0
KCA1 220754Z 00018KT 14/07 A2984 RMK A01 T01410074  RH  064%=      5-min Rain = 0
KCA1 220755Z 36018KT 14/07 A2984 RMK A01 T01410074  RH  064%=      5-min Rain = 0
KCA1 220756Z 35019KT 14/08 A2984 RMK A01 T01420075  RH  064%=      5-min Rain = 0
KCA1 220757Z 36017KT 14/08 A2984 RMK A01 T01420075  RH  064%=      5-min Rain = 0
KCA1 220758Z 36018KT 14/08 A2984 RMK A01 T01420075  RH  064%=      5-min Rain = 0
KCA1 220759Z 00016KT 14/08 A2984 RMK A01 T01420076  RH  065%=      5-min Rain = 0
KCA1 220800Z 36017KT 14/08 A2984 RMK A01 T01420076  RH  065%=      5-min Rain = 0
KCA1 220801Z 00019KT 14/08 A2984 RMK A01 T01420077  RH  065%=      5-min Rain = 0
KCA1 220802Z 36018KT 14/08 A2984 RMK A01 T01420077  RH  065%=      5-min Rain = 0
KCA1 220803Z 35016KT 14/08 A2984 RMK A01 T01430077  RH  065%=      5-min Rain = 0
KCA1 220804Z 36019KT 14/08 A2984 RMK A01 T01430077  RH  065%=      5-min Rain = 0
KCA1 220805Z 36018KT 14/08 A2984 RMK A01 T01420077  RH  065%=      5-min Rain = 0
KCA1 220806Z 36017KT 14/08 A2984 RMK A01 T01420077  RH  065%=      5-min Rain = 0
KCA1 220807Z 36017G22KT 14/08 A2984 RMK A01 T01430078  RH  065%=      5-min Rain = 0
KCA1 220808Z 36019KT 14/08 A2984 RMK A01 T01430078  RH  065%=      5-min Rain = 0
KCA1 220809Z 36017KT 14/08 A2984 RMK A01 T01430078  RH  065%=      5-min Rain = 0
KCA1 220810Z 35015KT 14/08 A2985 RMK A01 T01430078  RH  065%=      5-min Rain = 0
KCA1 220811Z 35015KT 14/08 A2985 RMK A01 T01430078  RH  065%=      5-min Rain = 0
KCA1 220812Z 35016KT 14/08 A2985 RMK A01 T01420079  RH  066%=      5-min Rain = 0
KCA1 220813Z 35015KT 14/08 A2985 RMK A01 T01420079  RH  066%=      5-min Rain = 0
KCA1 220814Z 35015KT 14/08 A2985 RMK A01 T01420079  RH  066%=      5-min Rain = 0
KCA1 220815Z 00015G20KT 14/08 A2985 RMK A01 T01410079  RH  066%=      5-min Rain = 0
KCA1 220816Z 35016KT 14/08 A2985 RMK A01 T01410079  RH  067%=      5-min Rain = 0
KCA1 220817Z 35014KT 14/08 A2985 RMK A01 T01400079  RH  067%=      5-min Rain = 0
KCA1 220818Z 36014KT 14/08 A2985 RMK A01 T01400080  RH  067%=      5-min Rain = 0
KCA1 220819Z 36015KT 14/08 A2985 RMK A01 T01400080  RH  067%=      5-min Rain = 0
KCA1 220820Z 35016KT 14/08 A2985 RMK A01 T01400080  RH  067%=      5-min Rain = 0
KCA1 220821Z 36016KT 14/08 A2986 RMK A01 T01400080  RH  067%=      5-min Rain = 0
KCA1 220822Z 35014KT 14/08 A2986 RMK A01 T01400080  RH  067%=      5-min Rain = 0
KCA1 220823Z 35015KT 14/08 A2986 RMK A01 T01400080  RH  067%=      5-min Rain = 0
KCA1 220824Z 35016G21KT 14/08 A2986 RMK A01 T01390081  RH  068%=      5-min Rain = 0
KCA1 220825Z 35015KT 14/08 A2986 RMK A01 T01380080  RH  068%=      5-min Rain = 0
KCA1 220826Z 36014KT 14/08 A2986 RMK A01 T01390081  RH  068%=      5-min Rain = 0
KCA1 220827Z 36016G21KT 14/08 A2986 RMK A01 T01380081  RH  068%=      5-min Rain = 0
KCA1 220828Z 35015KT 14/08 A2986 RMK A01 T01390082  RH  068%=      5-min Rain = 0
KCA1 220829Z 35014G20KT 14/08 A2986 RMK A01 T01390082  RH  069%=      5-min Rain = 0
KCA1 220830Z 35015KT 14/08 A2986 RMK A01 T01390082  RH  069%=      5-min Rain = 0
KCA1 220831Z 35016KT 14/08 A2986 RMK A01 T01390083  RH  069%=      5-min Rain = 0
KCA1 220832Z 35015KT 14/08 A2986 RMK A01 T01400084  RH  069%=      5-min Rain = 0
KCA1 220833Z 35016KT 14/08 A2986 RMK A01 T01400083  RH  069%=      5-min Rain = 0
KCA1 220834Z 35016KT 14/08 A2986 RMK A01 T01390083  RH  069%=      5-min Rain = 0
KCA1 220835Z 34015KT 14/08 A2986 RMK A01 T01390083  RH  069%=      5-min Rain = 0
KCA1 220836Z 35015KT 14/08 A2986 RMK A01 T01390083  RH  069%=      5-min Rain = 0
KCA1 220837Z 35016KT 14/08 A2986 RMK A01 T01390084  RH  069%=      5-min Rain = 0
KCA1 220838Z 35014KT 14/08 A2986 RMK A01 T01380084  RH  069%=      5-min Rain = 0
KCA1 220839Z 35013KT 14/08 A2986 RMK A01 T01390084  RH  070%=      5-min Rain = 0
KCA1 220840Z 36014KT 14/08 A2986 RMK A01 T01380084  RH  070%=      5-min Rain = 0
KCA1 220841Z 35014KT 14/08 A2987 RMK A01 T01380084  RH  070%=      5-min Rain = 0
KCA1 220842Z 34013KT 14/09 A2987 RMK A01 T01380085  RH  070%=      5-min Rain = 0
KCA1 220843Z 35012KT 14/09 A2987 RMK A01 T01390085  RH  070%=      5-min Rain = 0
KCA1 220844Z 35014KT 14/09 A2987 RMK A01 T01390085  RH  070%=      5-min Rain = 0
KCA1 220845Z 33012KT 14/09 A2987 RMK A01 T01380085  RH  070%=      5-min Rain = 0
KCA1 220846Z 35013G18KT 14/09 A2987 RMK A01 T01390085  RH  070%=      5-min Rain = 0
KCA1 220847Z 35015KT 14/09 A2987 RMK A01 T01390085  RH  070%=      5-min Rain = 0
KCA1 220848Z 34013KT 14/09 A2987 RMK A01 T01400085  RH  070%=      5-min Rain = 0
KCA1 220849Z 35014KT 14/09 A2987 RMK A01 T01410085  RH  069%=      5-min Rain = 0
KCA1 220850Z 35016KT 14/09 A2987 RMK A01 T01390085  RH  069%=      5-min Rain = 0
KCA1 220851Z 35015KT 14/09 A2987 RMK A01 T01400085  RH  070%=      5-min Rain = 0
KCA1 220852Z 34015KT 14/09 A2987 RMK A01 T01400085  RH  069%=      5-min Rain = 0
KCA1 220853Z 36014KT 14/08 A2988 RMK A01 T01390084  RH  070%=      5-min Rain = 0
KCA1 220854Z 35014KT 14/09 A2987 RMK A01 T01390085  RH  070%=      5-min Rain = 0
KCA1 220855Z 35013KT 14/09 A2988 RMK A01 T01390085  RH  070%=      5-min Rain = 0
KCA1 220856Z 34016G21KT 14/08 A2988 RMK A01 T01370084  RH  070%=      5-min Rain = 0
KCA1 220857Z 34016KT 14/09 A2988 RMK A01 T01370085  RH  071%=      5-min Rain = 0
KCA1 220858Z 35015KT 14/09 A2988 RMK A01 T01380085  RH  070%=      5-min Rain = 0
KCA1 220859Z 35014KT 14/08 A2988 RMK A01 T01380084  RH  070%=      5-min Rain = 0
KCA1 220900Z 35013KT 14/08 A2987 RMK A01 T01380084  RH  070%=      5-min Rain = 0
KCA1 220901Z 35014KT 14/08 A2988 RMK A01 T01370084  RH  070%=      5-min Rain = 0
KCA1 220902Z 35015KT 14/09 A2988 RMK A01 T01360085  RH  071%=      5-min Rain = 0
KCA1 220903Z 35015G20KT 14/09 A2988 RMK A01 T01360085  RH  071%=      5-min Rain = 0
KCA1 220904Z 35016KT 14/09 A2988 RMK A01 T01360085  RH  071%=      5-min Rain = 0
KCA1 220905Z 35014KT 14/09 A2988 RMK A01 T01360085  RH  071%=      5-min Rain = 0
KCA1 220906Z 35014KT 14/09 A2988 RMK A01 T01360085  RH  071%=      5-min Rain = 0
KCA1 220907Z 34015G20KT 14/09 A2988 RMK A01 T01350085  RH  071%=      5-min Rain = 0
KCA1 220908Z 35016KT 14/09 A2988 RMK A01 T01350085  RH  072%=      5-min Rain = 0
KCA1 220909Z 34014KT 14/09 A2988 RMK A01 T01350085  RH  072%=      5-min Rain = 0
KCA1 220910Z 35017KT 14/09 A2988 RMK A01 T01350085  RH  072%=      5-min Rain = 0
KCA1 220911Z 35014KT 14/08 A2988 RMK A01 T01350084  RH  071%=      5-min Rain = 0
KCA1 220912Z 35014KT 14/09 A2988 RMK A01 T01350085  RH  071%=      5-min Rain = 0
KCA1 220913Z 35014KT 14/09 A2988 RMK A01 T01350085  RH  072%=      5-min Rain = 0
KCA1 220914Z 35011KT 13/08 A2989 RMK A01 T01340084  RH  072%=      5-min Rain = 0
KCA1 220915Z 35014G20KT 13/08 A2989 RMK A01 T01330084  RH  072%=      5-min Rain = 0
KCA1 220916Z 35015KT 13/08 A2989 RMK A01 T01330084  RH  072%=      5-min Rain = 0
KCA1 220917Z 35015KT 13/09 A2989 RMK A01 T01340085  RH  072%=      5-min Rain = 0
KCA1 220918Z 35016KT 13/09 A2989 RMK A01 T01340085  RH  072%=      5-min Rain = 0
KCA1 220919Z 36018KT 13/08 A2989 RMK A01 T01340084  RH  072%=      5-min Rain = 0
KCA1 220920Z 35015G20KT 14/09 A2989 RMK A01 T01350085  RH  072%=      5-min Rain = 0
KCA1 220921Z 35015G21KT 14/08 A2989 RMK A01 T01350084  RH  071%=      5-min Rain = 0
KCA1 220922Z 36014KT 14/08 A2989 RMK A01 T01350084  RH  071%=      5-min Rain = 0
KCA1 220923Z 35014KT 14/08 A2989 RMK A01 T01350084  RH  071%=      5-min Rain = 0
KCA1 220924Z 35014KT 13/08 A2989 RMK A01 T01340084  RH  072%=      5-min Rain = 0
KCA1 220925Z 35015G20KT 13/08 A2989 RMK A01 T01340084  RH  072%=      5-min Rain = 0
KCA1 220926Z 35013KT 13/08 A2989 RMK A01 T01340084  RH  072%=      5-min Rain = 0
KCA1 220927Z 35014KT 13/08 A2989 RMK A01 T01340084  RH  072%=      5-min Rain = 0
KCA1 220928Z 35013KT 13/08 A2989 RMK A01 T01330084  RH  072%=      5-min Rain = 0
KCA1 220929Z 35016KT 13/08 A2989 RMK A01 T01340084  RH  072%=      5-min Rain = 0
KCA1 220930Z 35013KT 13/08 A2989 RMK A01 T01340084  RH  072%=      5-min Rain = 0
KCA1 220931Z 00011KT 13/08 A299 RMK A01 T01340084  RH  072%=      5-min Rain = 0
KCA1 220932Z 36013KT 13/08 A299 RMK A01 T01330084  RH  072%=      5-min Rain = 0
KCA1 220933Z 36012KT 13/08 A299 RMK A01 T01330084  RH  072%=      5-min Rain = 0
KCA1 220934Z 36012KT 13/08 A299 RMK A01 T01330084  RH  072%=      5-min Rain = 0
KCA1 220935Z 36012KT 13/08 A299 RMK A01 T01320083  RH  072%=      5-min Rain = 0
KCA1 220936Z 35012KT 13/08 A299 RMK A01 T01320083  RH  072%=      5-min Rain = 0
KCA1 220937Z 35012KT 13/08 A299 RMK A01 T01320084  RH  072%=      5-min Rain = 0
KCA1 220938Z 00012KT 13/08 A299 RMK A01 T01320083  RH  072%=      5-min Rain = 0
KCA1 220939Z 35014KT 13/08 A299 RMK A01 T01320083  RH  072%=      5-min Rain = 0
KCA1 220940Z 35011KT 13/08 A299 RMK A01 T01320083  RH  072%=      5-min Rain = 0
KCA1 220941Z 35012KT 13/08 A299 RMK A01 T01310083  RH  073%=      5-min Rain = 0
KCA1 220942Z 35012KT 13/08 A299 RMK A01 T01300083  RH  073%=      5-min Rain = 0
KCA1 220943Z 35012KT 13/08 A299 RMK A01 T01300083  RH  073%=      5-min Rain = 0
KCA1 220944Z 35012KT 13/08 A299 RMK A01 T01300083  RH  073%=      5-min Rain = 0
KCA1 220945Z 35016KT 13/08 A299 RMK A01 T01300083  RH  073%=      5-min Rain = 0
KCA1 220946Z 35012KT 13/08 A299 RMK A01 T01300083  RH  073%=      5-min Rain = 0
KCA1 220947Z 35012KT 13/08 A299 RMK A01 T01300083  RH  073%=      5-min Rain = 0
KCA1 220948Z 35013KT 13/08 A299 RMK A01 T01290083  RH  073%=      5-min Rain = 0
KCA1 220949Z 35014KT 13/08 A299 RMK A01 T01290083  RH  073%=      5-min Rain = 0
KCA1 220950Z 36014KT 13/08 A299 RMK A01 T01290083  RH  073%=      5-min Rain = 0
KCA1 220951Z 35012KT 13/08 A299 RMK A01 T01300083  RH  073%=      5-min Rain = 0
KCA1 220952Z 36012KT 13/08 A299 RMK A01 T01300083  RH  073%=      5-min Rain = 0
KCA1 220953Z 35011KT 13/08 A299 RMK A01 T01290083  RH  073%=      5-min Rain = 0
KCA1 220954Z 35013KT 13/08 A299 RMK A01 T01290083  RH  074%=      5-min Rain = 0
KCA1 220955Z 35015KT 13/08 A299 RMK A01 T01290083  RH  074%=      5-min Rain = 0
KCA1 220956Z 36012KT 13/08 A299 RMK A01 T01290083  RH  073%=      5-min Rain = 0
KCA1 220957Z 35015KT 13/08 A299 RMK A01 T01290083  RH  074%=      5-min Rain = 0
KCA1 220958Z 35014G19KT 13/08 A299 RMK A01 T01290083  RH  074%=      5-min Rain = 0
KCA1 220959Z 36015KT 13/08 A299 RMK A01 T01290083  RH  074%=      5-min Rain = 0
KCA1 221000Z 35014KT 13/08 A299 RMK A01 T01290083  RH  073%=      5-min Rain = 0
KCA1 221001Z 35014G19KT 13/08 A299 RMK A01 T01290083  RH  073%=      5-min Rain = 0
KCA1 221002Z 35015KT 13/08 A299 RMK A01 T01290083  RH  073%=      5-min Rain = 0
KCA1 221003Z 36015KT 13/08 A299 RMK A01 T01290082  RH  073%=      5-min Rain = 0
KCA1 221004Z 35013KT 13/08 A299 RMK A01 T01290083  RH  073%=      5-min Rain = 0
KCA1 221005Z 36013KT 13/08 A299 RMK A01 T01280083  RH  074%=      5-min Rain = 0
KCA1 221006Z 35012KT 13/08 A299 RMK A01 T01280083  RH  074%=      5-min Rain = 0
KCA1 221007Z 35013KT 13/08 A299 RMK A01 T01270082  RH  074%=      5-min Rain = 0
KCA1 221008Z 35012KT 13/08 A299 RMK A01 T01270082  RH  074%=      5-min Rain = 0
KCA1 221009Z 35014KT 13/08 A299 RMK A01 T01270083  RH  074%=      5-min Rain = 0
KCA1 221010Z 35012KT 13/08 A299 RMK A01 T01260082  RH  074%=      5-min Rain = 0
KCA1 221011Z 35012KT 13/08 A299 RMK A01 T01260082  RH  075%=      5-min Rain = 0
KCA1 221012Z 35012KT 13/08 A299 RMK A01 T01260082  RH  075%=      5-min Rain = 0
KCA1 221013Z 35014KT 13/08 A299 RMK A01 T01260083  RH  075%=      5-min Rain = 0
KCA1 221014Z 36013KT 13/08 A299 RMK A01 T01260083  RH  075%=      5-min Rain = 0
KCA1 221015Z 35012KT 13/08 A299 RMK A01 T01260083  RH  075%=      5-min Rain = 0
KCA1 221016Z 35013KT 13/08 A299 RMK A01 T01260082  RH  075%=      5-min Rain = 0
KCA1 221017Z 35014KT 13/08 A299 RMK A01 T01260083  RH  075%=      5-min Rain = 0
KCA1 221018Z 35015KT 13/08 A299 RMK A01 T01260083  RH  075%=      5-min Rain = 0
KCA1 221019Z 35015KT 13/08 A299 RMK A01 T01260083  RH  075%=      5-min Rain = 0
KCA1 221020Z 35015KT 13/08 A299 RMK A01 T01260083  RH  075%=      5-min Rain = 0
KCA1 221021Z 35016KT 13/08 A299 RMK A01 T01260083  RH  075%=      5-min Rain = 0
KCA1 221022Z 35015KT 13/08 A299 RMK A01 T01260083  RH  075%=      5-min Rain = 0
KCA1 221023Z 35016G21KT 13/08 A299 RMK A01 T01250083  RH  075%=      5-min Rain = 0
KCA1 221024Z 35015KT 13/08 A2991 RMK A01 T01250083  RH  075%=      5-min Rain = 0
KCA1 221025Z 35013KT 13/08 A2991 RMK A01 T01250083  RH  075%=      5-min Rain = 0
KCA1 221026Z 35012KT 13/08 A2991 RMK A01 T01250083  RH  075%=      5-min Rain = 0
KCA1 221027Z 35014KT 13/08 A2991 RMK A01 T01250083  RH  076%=      5-min Rain = 0
KCA1 221028Z 35014KT 13/08 A2991 RMK A01 T01250083  RH  076%=      5-min Rain = 0
KCA1 221029Z 35014KT 12/08 A2991 RMK A01 T01240083  RH  076%=      5-min Rain = 0
KCA1 221030Z 35012G17KT 12/08 A2991 RMK A01 T01240083  RH  076%=      5-min Rain = 0
KCA1 221031Z 35012KT 12/08 A2991 RMK A01 T01240083  RH  076%=      5-min Rain = 0
KCA1 221032Z 35014KT 12/08 A2991 RMK A01 T01230083  RH  076%=      5-min Rain = 0
KCA1 221033Z 35013KT 12/08 A2991 RMK A01 T01230083  RH  076%=      5-min Rain = 0
KCA1 221034Z 34013G18KT 12/08 A2991 RMK A01 T01230083  RH  077%=      5-min Rain = 0
KCA1 221035Z 35014KT 12/08 A2991 RMK A01 T01230083  RH  077%=      5-min Rain = 0
KCA1 221036Z 34012KT 12/08 A2991 RMK A01 T01220083  RH  077%=      5-min Rain = 0
KCA1 221037Z 34014KT 12/08 A2992 RMK A01 T01220083  RH  077%=      5-min Rain = 0
KCA1 221038Z 34013G18KT 12/08 A2992 RMK A01 T01220083  RH  077%=      5-min Rain = 0
KCA1 221039Z 34013KT 12/08 A2992 RMK A01 T01220083  RH  077%=      5-min Rain = 0
KCA1 221040Z 34013KT 12/08 A2992 RMK A01 T01220083  RH  077%=      5-min Rain = 0
KCA1 221041Z 34013KT 12/08 A2992 RMK A01 T01220083  RH  077%=      5-min Rain = 0
KCA1 221042Z 34012KT 12/08 A2992 RMK A01 T01210083  RH  078%=      5-min Rain = 0
KCA1 221043Z 33014KT 12/08 A2992 RMK A01 T01210083  RH  078%=      5-min Rain = 0
KCA1 221044Z 34013KT 12/08 A2992 RMK A01 T01210084  RH  078%=      5-min Rain = 0
KCA1 221045Z 34012KT 12/08 A2992 RMK A01 T01210084  RH  078%=      5-min Rain = 0
KCA1 221046Z 34010KT 12/08 A2992 RMK A01 T01210084  RH  078%=      5-min Rain = 0
KCA1 221047Z 33010KT 12/08 A2993 RMK A01 T01200084  RH  078%=      5-min Rain = 0
KCA1 221048Z 34010KT 12/08 A2993 RMK A01 T01200084  RH  079%=      5-min Rain = 0
KCA1 221049Z 34012KT 12/08 A2993 RMK A01 T01200084  RH  079%=      5-min Rain = 0
KCA1 221050Z 34011KT 12/08 A2993 RMK A01 T01200084  RH  079%=      5-min Rain = 0
KCA1 221051Z 34009KT 12/09 A2993 RMK A01 T01200085  RH  079%=      5-min Rain = 0
KCA1 221052Z 34012KT 12/08 A2993 RMK A01 T01200084  RH  079%=      5-min Rain = 0
KCA1 221053Z 34010KT 12/08 A2993 RMK A01 T01200084  RH  079%=      5-min Rain = 0
KCA1 221054Z 34010KT 12/09 A2993 RMK A01 T01210085  RH  079%=      5-min Rain = 0
KCA1 221055Z 34011KT 12/08 A2993 RMK A01 T01200084  RH  079%=      5-min Rain = 0
KCA1 221056Z 34010KT 12/09 A2993 RMK A01 T01200085  RH  079%=      5-min Rain = 0
KCA1 221057Z 34011KT 12/09 A2993 RMK A01 T01200085  RH  079%=      5-min Rain = 0
KCA1 221058Z 34011G16KT 12/09 A2993 RMK A01 T01200085  RH  079%=      5-min Rain = 0
KCA1 221059Z 34013KT 12/09 A2993 RMK A01 T01200085  RH  079%=      5-min Rain = 0
KCA1 221100Z 34010KT 12/09 A2993 RMK A01 T01200085  RH  079%=      5-min Rain = 0
KCA1 221101Z 34011KT 12/09 A2993 RMK A01 T01200085  RH  079%=      5-min Rain = 0
KCA1 221102Z 34014KT 12/09 A2993 RMK A01 T01200085  RH  079%=      5-min Rain = 0
KCA1 221103Z 33012KT 12/09 A2993 RMK A01 T01200085  RH  079%=      5-min Rain = 0
KCA1 221104Z 34012G18KT 12/09 A2993 RMK A01 T01200085  RH  079%=      5-min Rain = 0
KCA1 221105Z 34011KT 12/09 A2993 RMK A01 T01200085  RH  079%=      5-min Rain = 0
KCA1 221106Z 34011KT 12/09 A2993 RMK A01 T01200085  RH  079%=      5-min Rain = 0
KCA1 221107Z 34011KT 12/09 A2993 RMK A01 T01200085  RH  079%=      5-min Rain = 0
KCA1 221108Z 35011KT 12/09 A2993 RMK A01 T01200086  RH  079%=      5-min Rain = 0
KCA1 221109Z 34010KT 12/09 A2994 RMK A01 T01200086  RH  079%=      5-min Rain = 0
KCA1 221110Z 34010KT 12/09 A2994 RMK A01 T01200086  RH  079%=      5-min Rain = 0
KCA1 221111Z 34013KT 12/09 A2994 RMK A01 T01190085  RH  080%=      5-min Rain = 0
KCA1 221112Z 35013KT 12/09 A2994 RMK A01 T01190086  RH  080%=      5-min Rain = 0
KCA1 221113Z 34009KT 12/09 A2994 RMK A01 T01200086  RH  080%=      5-min Rain = 0
KCA1 221114Z 34010KT 12/09 A2994 RMK A01 T01200085  RH  079%=      5-min Rain = 0
KCA1 221115Z 34010KT 12/09 A2994 RMK A01 T01190085  RH  080%=      5-min Rain = 0
KCA1 221116Z 34010KT 12/09 A2994 RMK A01 T01180085  RH  080%=      5-min Rain = 0
KCA1 221117Z 34013KT 12/09 A2994 RMK A01 T01180086  RH  080%=      5-min Rain = 0
KCA1 221118Z 34011KT 12/09 A2994 RMK A01 T01180086  RH  081%=      5-min Rain = 0
KCA1 221119Z 34011KT 12/09 A2994 RMK A01 T01180086  RH  081%=      5-min Rain = 0
KCA1 221120Z 34011KT 12/09 A2994 RMK A01 T01180086  RH  081%=      5-min Rain = 0
KCA1 221121Z 33010KT 12/09 A2994 RMK A01 T01180086  RH  081%=      5-min Rain = 0
KCA1 221122Z 34012KT 12/09 A2994 RMK A01 T01170086  RH  081%=      5-min Rain = 0
KCA1 221123Z 33011KT 12/09 A2995 RMK A01 T01170086  RH  081%=      5-min Rain = 0
KCA1 221124Z 34012KT 12/09 A2995 RMK A01 T01170086  RH  081%=      5-min Rain = 0
KCA1 221125Z 34011KT 12/09 A2995 RMK A01 T01180086  RH  081%=      5-min Rain = 0
KCA1 221126Z 34010KT 12/09 A2995 RMK A01 T01180086  RH  081%=      5-min Rain = 0
KCA1 221127Z 34010KT 12/09 A2995 RMK A01 T01180086  RH  081%=      5-min Rain = 0
KCA1 221128Z 34010KT 12/09 A2995 RMK A01 T01170086  RH  081%=      5-min Rain = 0
KCA1 221129Z 33009KT 12/09 A2995 RMK A01 T01170086  RH  081%=      5-min Rain = 0
KCA1 221130Z 34009KT 12/09 A2995 RMK A01 T01170086  RH  081%=      5-min Rain = 0
KCA1 221131Z 34009KT 12/09 A2995 RMK A01 T01160086  RH  082%=      5-min Rain = 0
KCA1 221132Z 34010KT 12/09 A2995 RMK A01 T01160086  RH  082%=      5-min Rain = 0
KCA1 221133Z 34008KT 12/09 A2995 RMK A01 T01160086  RH  082%=      5-min Rain = 0
KCA1 221134Z 34011KT 12/09 A2995 RMK A01 T01160086  RH  082%=      5-min Rain = 0
KCA1 221135Z 34012KT 12/09 A2995 RMK A01 T01160086  RH  082%=      5-min Rain = 0
KCA1 221136Z 34010KT 12/09 A2995 RMK A01 T01170087  RH  082%=      5-min Rain = 0
KCA1 221137Z 34010KT 12/09 A2995 RMK A01 T01170086  RH  082%=      5-min Rain = 0
KCA1 221138Z 34011KT 12/09 A2995 RMK A01 T01160086  RH  082%=      5-min Rain = 0
KCA1 221139Z 34011KT 12/09 A2995 RMK A01 T01160086  RH  082%=      5-min Rain = 0
KCA1 221140Z 34012KT 12/09 A2995 RMK A01 T01160087  RH  082%=      5-min Rain = 0
KCA1 221141Z 34011KT 12/09 A2995 RMK A01 T01160086  RH  082%=      5-min Rain = 0
KCA1 221142Z 34012KT 12/09 A2995 RMK A01 T01160087  RH  082%=      5-min Rain = 0
KCA1 221143Z 35011KT 12/09 A2995 RMK A01 T01160087  RH  082%=      5-min Rain = 0
KCA1 221144Z 35009KT 12/09 A2995 RMK A01 T01170087  RH  082%=      5-min Rain = 0
KCA1 221145Z 34008KT 12/09 A2996 RMK A01 T01160086  RH  082%=      5-min Rain = 0
KCA1 221146Z 34008KT 12/09 A2996 RMK A01 T01150086  RH  082%=      5-min Rain = 0
KCA1 221147Z 35010KT 12/09 A2996 RMK A01 T01150086  RH  083%=      5-min Rain = 0
KCA1 221148Z 34008KT 11/09 A2996 RMK A01 T01140086  RH  083%=      5-min Rain = 0
KCA1 221149Z 35009KT 11/09 A2996 RMK A01 T01140086  RH  083%=      5-min Rain = 0
KCA1 221150Z 34009G14KT 11/09 A2996 RMK A01 T01140086  RH  083%=      5-min Rain = 0
KCA1 221151Z 35009G14KT 11/09 A2996 RMK A01 T01140086  RH  083%=      5-min Rain = 0
KCA1 221152Z 34011KT 11/09 A2996 RMK A01 T01140086  RH  083%=      5-min Rain = 0
KCA1 221153Z 34012KT 11/09 A2996 RMK A01 T01140086  RH  083%=      5-min Rain = 0
KCA1 221154Z 33010KT 11/09 A2996 RMK A01 T01140086  RH  083%=      5-min Rain = 0
KCA1 221155Z 34009KT 11/09 A2996 RMK A01 T01140087  RH  083%=      5-min Rain = 0
KCA1 221156Z 34011KT 11/09 A2996 RMK A01 T01140087  RH  083%=      5-min Rain = 0
KCA1 221157Z 33010KT 11/09 A2996 RMK A01 T01140087  RH  083%=      5-min Rain = 0
KCA1 221158Z 33011KT 11/09 A2997 RMK A01 T01140087  RH  083%=      5-min Rain = 0
KCA1 221159Z 33010KT 11/09 A2997 RMK A01 T01140087  RH  083%=      5-min Rain = 0
KCA1 221200Z 33010KT 11/09 A2997 RMK A01 T01140087  RH  083%=      5-min Rain = 0
KCA1 221201Z 32009KT 11/09 A2997 RMK A01 T01140087  RH  083%=      5-min Rain = 0
KCA1 221202Z 32008KT 11/09 A2997 RMK A01 T01140087  RH  083%=      5-min Rain = 0
KCA1 221203Z 33010KT 11/09 A2997 RMK A01 T01140087  RH  083%=      5-min Rain = 0
KCA1 221204Z 33010KT 11/09 A2998 RMK A01 T01140087  RH  084%=      5-min Rain = 0
KCA1 221205Z 33010KT 11/09 A2998 RMK A01 T01130087  RH  084%=      5-min Rain = 0
KCA1 221206Z 33012KT 11/09 A2998 RMK A01 T01130087  RH  083%=      5-min Rain = 0
KCA1 221207Z 33011KT 11/09 A2998 RMK A01 T01140087  RH  083%=      5-min Rain = 0
KCA1 221208Z 34010KT 11/09 A2998 RMK A01 T01140087  RH  083%=      5-min Rain = 0
KCA1 221209Z 33007KT 11/09 A2998 RMK A01 T01140087  RH  083%=      5-min Rain = 0
KCA1 221210Z 33007KT 11/09 A2998 RMK A01 T01140086  RH  083%=      5-min Rain = 0
KCA1 221211Z 34007KT 11/09 A2998 RMK A01 T01130086  RH  084%=      5-min Rain = 0
KCA1 221212Z 34009KT 11/09 A2998 RMK A01 T01130086  RH  084%=      5-min Rain = 0
KCA1 221213Z 34008KT 11/09 A2998 RMK A01 T01130086  RH  084%=      5-min Rain = 0
KCA1 221214Z 33007KT 11/09 A2998 RMK A01 T01130086  RH  084%=      5-min Rain = 0
KCA1 221215Z 33009KT 11/09 A2998 RMK A01 T01120086  RH  084%=      5-min Rain = 0
KCA1 221216Z 33009KT 11/09 A2998 RMK A01 T01130087  RH  084%=      5-min Rain = 0
KCA1 221217Z 33009KT 11/09 A2999 RMK A01 T01130087  RH  084%=      5-min Rain = 0
KCA1 221218Z 34010KT 11/09 A2999 RMK A01 T01130087  RH  084%=      5-min Rain = 0
KCA1 221219Z 33009KT 11/09 A2999 RMK A01 T01140087  RH  083%=      5-min Rain = 0
KCA1 221220Z 33010KT 11/09 A2999 RMK A01 T01140087  RH  083%=      5-min Rain = 0
KCA1 221221Z 33008KT 12/09 A2999 RMK A01 T01150087  RH  083%=      5-min Rain = 0
KCA1 221222Z 33009KT 12/09 A2999 RMK A01 T01150087  RH  083%=      5-min Rain = 0
KCA1 221223Z 33010KT 12/09 A2999 RMK A01 T01150087  RH  083%=      5-min Rain = 0
KCA1 221224Z 33008KT 12/09 A2999 RMK A01 T01150087  RH  083%=      5-min Rain = 0
KCA1 221225Z 34009KT 12/09 A2999 RMK A01 T01150087  RH  083%=      5-min Rain = 0
KCA1 221226Z 33010KT 12/09 A2999 RMK A01 T01150087  RH  083%=      5-min Rain = 0
KCA1 221227Z 32008KT 12/09 A2999 RMK A01 T01150087  RH  083%=      5-min Rain = 0
KCA1 221228Z 33008KT 12/09 A2999 RMK A01 T01150087  RH  083%=      5-min Rain = 0
KCA1 221229Z 33007KT 12/09 A2999 RMK A01 T01150087  RH  083%=      5-min Rain = 0
KCA1 221230Z 33009KT 12/09 A30 RMK A01 T01150087  RH  083%=      5-min Rain = 0
KCA1 221231Z 33009KT 12/09 A30 RMK A01 T01150087  RH  083%=      5-min Rain = 0
KCA1 221232Z 34010KT 12/09 A30 RMK A01 T01150087  RH  083%=      5-min Rain = 0
KCA1 221233Z 34009KT 12/09 A30 RMK A01 T01150087  RH  083%=      5-min Rain = 0
KCA1 221234Z 34011KT 12/09 A30 RMK A01 T01150088  RH  083%=      5-min Rain = 0
KCA1 221235Z 33008KT 12/09 A30 RMK A01 T01160088  RH  083%=      5-min Rain = 0
KCA1 221236Z 33011KT 12/09 A30 RMK A01 T01160088  RH  083%=      5-min Rain = 0
KCA1 221237Z 33011KT 12/09 A30 RMK A01 T01160087  RH  083%=      5-min Rain = 0
KCA1 221238Z 33010KT 12/09 A30 RMK A01 T01160087  RH  083%=      5-min Rain = 0
KCA1 221239Z 34010KT 12/09 A30 RMK A01 T01160088  RH  083%=      5-min Rain = 0
KCA1 221240Z 33010KT 12/09 A30 RMK A01 T01160088  RH  083%=      5-min Rain = 0
KCA1 221241Z 34011KT 12/09 A30 RMK A01 T01170088  RH  083%=      5-min Rain = 0
KCA1 221242Z 34010KT 12/09 A30 RMK A01 T01170088  RH  082%=      5-min Rain = 0
KCA1 221243Z 33007KT 12/09 A30 RMK A01 T01170088  RH  082%=      5-min Rain = 0
KCA1 221244Z 33007KT 12/09 A3001 RMK A01 T01170088  RH  082%=      5-min Rain = 0
KCA1 221245Z 33010KT 12/09 A3001 RMK A01 T01180088  RH  082%=      5-min Rain = 0
KCA1 221246Z 33009KT 12/09 A3001 RMK A01 T01180088  RH  082%=      5-min Rain = 0
KCA1 221247Z 33011KT 12/09 A3001 RMK A01 T01190089  RH  082%=      5-min Rain = 0
KCA1 221248Z 33010KT 12/09 A3001 RMK A01 T01190089  RH  081%=      5-min Rain = 0
KCA1 221249Z 33010KT 12/09 A3001 RMK A01 T01200088  RH  081%=      5-min Rain = 0
KCA1 221250Z 33010KT 12/09 A3001 RMK A01 T01200089  RH  081%=      5-min Rain = 0
KCA1 221251Z 33012KT 12/09 A3001 RMK A01 T01200089  RH  081%=      5-min Rain = 0
KCA1 221252Z 33009KT 12/09 A3001 RMK A01 T01210089  RH  081%=      5-min Rain = 0
KCA1 221253Z 33010KT 12/09 A3001 RMK A01 T01210089  RH  081%=      5-min Rain = 0
KCA1 221254Z 33009KT 12/09 A3001 RMK A01 T01210089  RH  081%=      5-min Rain = 0
KCA1 221255Z 33008KT 12/09 A3001 RMK A01 T01220089  RH  081%=      5-min Rain = 0
KCA1 221256Z 32010KT 12/09 A3001 RMK A01 T01220090  RH  081%=      5-min Rain = 0
KCA1 221257Z 33011KT 12/09 A3001 RMK A01 T01230090  RH  080%=      5-min Rain = 0
KCA1 221258Z 33013KT 12/09 A3001 RMK A01 T01230089  RH  080%=      5-min Rain = 0
KCA1 221259Z 33012KT 12/09 A3001 RMK A01 T01230089  RH  080%=      5-min Rain = 0
KCA1 221300Z 33011KT 12/09 A3001 RMK A01 T01230089  RH  080%=      5-min Rain = 0
KCA1 221301Z 34012KT 12/09 A3001 RMK A01 T01230089  RH  080%=      5-min Rain = 0
KCA1 221302Z 33012KT 12/09 A3001 RMK A01 T01230089  RH  080%=      5-min Rain = 0
KCA1 221303Z 34015KT 12/09 A3001 RMK A01 T01230089  RH  080%=      5-min Rain = 0
KCA1 221304Z 34014KT 12/09 A3001 RMK A01 T01230089  RH  080%=      5-min Rain = 0
KCA1 221305Z 33013KT 12/09 A3001 RMK A01 T01230089  RH  080%=      5-min Rain = 0
KCA1 221306Z 33013KT 12/09 A3001 RMK A01 T01230089  RH  080%=      5-min Rain = 0
KCA1 221307Z 34014KT 12/09 A3001 RMK A01 T01230090  RH  080%=      5-min Rain = 0
KCA1 221308Z 34012KT 12/09 A3001 RMK A01 T01230089  RH  080%=      5-min Rain = 0
KCA1 221309Z 33015KT 12/09 A3001 RMK A01 T01230089  RH  080%=      5-min Rain = 0
KCA1 221310Z 34013KT 12/09 A3001 RMK A01 T01230089  RH  080%=      5-min Rain = 0
KCA1 221311Z 34013KT 12/09 A3001 RMK A01 T01230089  RH  080%=      5-min Rain = 0
KCA1 221312Z 34017KT 12/09 A3001 RMK A01 T01240090  RH  080%=      5-min Rain = 0
KCA1 221313Z 34013KT 12/09 A3001 RMK A01 T01240089  RH  079%=      5-min Rain = 0
KCA1 221314Z 34011KT 13/09 A3001 RMK A01 T01250090  RH  079%=      5-min Rain = 0
KCA1 221315Z 34013KT 13/09 A3001 RMK A01 T01250090  RH  079%=      5-min Rain = 0
KCA1 221316Z 34012KT 13/09 A3001 RMK A01 T01250090  RH  079%=      5-min Rain = 0
KCA1 221317Z 34011KT 13/09 A3001 RMK A01 T01250090  RH  079%=      5-min Rain = 0
KCA1 221318Z 34012KT 13/09 A3001 RMK A01 T01260091  RH  079%=      5-min Rain = 0
KCA1 221319Z 34016KT 13/09 A3001 RMK A01 T01250090  RH  079%=      5-min Rain = 0
KCA1 221320Z 34014KT 13/09 A3001 RMK A01 T01250089  RH  079%=      5-min Rain = 0
KCA1 221321Z 34017KT 12/09 A3001 RMK A01 T01240089  RH  079%=      5-min Rain = 0
KCA1 221322Z 34014KT 12/09 A3001 RMK A01 T01240089  RH  079%=      5-min Rain = 0
KCA1 221323Z 35017KT 12/09 A3001 RMK A01 T01240089  RH  079%=      5-min Rain = 0
KCA1 221324Z 34014KT 12/09 A3001 RMK A01 T01240089  RH  079%=      5-min Rain = 0
KCA1 221325Z 34013KT 13/09 A3001 RMK A01 T01250090  RH  079%=      5-min Rain = 0
KCA1 221326Z 34011KT 13/09 A3002 RMK A01 T01250090  RH  079%=      5-min Rain = 0
KCA1 221327Z 34012KT 13/09 A3001 RMK A01 T01260091  RH  079%=      5-min Rain = 0
KCA1 221328Z 35011KT 13/09 A3002 RMK A01 T01260091  RH  079%=      5-min Rain = 0
KCA1 221329Z 35016KT 13/09 A3001 RMK A01 T01280092  RH  079%=      5-min Rain = 0
KCA1 221330Z 35014G20KT 13/09 A3002 RMK A01 T01290091  RH  078%=      5-min Rain = 0
KCA1 221331Z 34016KT 13/09 A3002 RMK A01 T01300091  RH  077%=      5-min Rain = 0
KCA1 221332Z 34015KT 13/09 A3002 RMK A01 T01300091  RH  077%=      5-min Rain = 0
KCA1 221333Z 33015KT 13/09 A3002 RMK A01 T01310092  RH  077%=      5-min Rain = 0
KCA1 221334Z 33017KT 13/09 A3002 RMK A01 T01320091  RH  077%=      5-min Rain = 0
KCA1 221335Z 34015KT 13/09 A3002 RMK A01 T01320091  RH  076%=      5-min Rain = 0
KCA1 221336Z 34014KT 13/09 A3002 RMK A01 T01330092  RH  076%=      5-min Rain = 0
KCA1 221337Z 34015G21KT 13/09 A3002 RMK A01 T01340092  RH  076%=      5-min Rain = 0
KCA1 221338Z 35018KT 14/09 A3002 RMK A01 T01350091  RH  075%=      5-min Rain = 0
KCA1 221339Z 35014KT 14/09 A3002 RMK A01 T01350091  RH  075%=      5-min Rain = 0
KCA1 221340Z 35014KT 14/09 A3002 RMK A01 T01350092  RH  075%=      5-min Rain = 0
KCA1 221341Z 35014KT 14/09 A3002 RMK A01 T01360092  RH  075%=      5-min Rain = 0
KCA1 221342Z 35017KT 14/09 A3002 RMK A01 T01370092  RH  074%=      5-min Rain = 0
KCA1 221343Z 35016KT 14/09 A3002 RMK A01 T01360091  RH  074%=      5-min Rain = 0
KCA1 221344Z 34018KT 14/09 A3002 RMK A01 T01360091  RH  074%=      5-min Rain = 0
KCA1 221345Z 34018KT 14/09 A3002 RMK A01 T01360091  RH  074%=      5-min Rain = 0
KCA1 221346Z 35015KT 14/09 A3002 RMK A01 T01350091  RH  074%=      5-min Rain = 0
KCA1 221347Z 34014G19KT 14/09 A3002 RMK A01 T01360091  RH  074%=      5-min Rain = 0
KCA1 221348Z 34016G21KT 14/09 A3002 RMK A01 T01370092  RH  074%=      5-min Rain = 0
KCA1 221349Z 35019KT 14/09 A3002 RMK A01 T01380092  RH  073%=      5-min Rain = 0
KCA1 221350Z 35016KT 14/09 A3002 RMK A01 T01380091  RH  073%=      5-min Rain = 0
KCA1 221351Z 35014KT 14/09 A3002 RMK A01 T01380092  RH  074%=      5-min Rain = 0
KCA1 221352Z 35015KT 14/09 A3002 RMK A01 T01390092  RH  073%=      5-min Rain = 0
KCA1 221353Z 35015KT 14/09 A3002 RMK A01 T01400092  RH  073%=      5-min Rain = 0
KCA1 221354Z 35017KT 14/09 A3002 RMK A01 T01400092  RH  073%=      5-min Rain = 0
KCA1 221355Z 36015G21KT 14/09 A3003 RMK A01 T01400092  RH  073%=      5-min Rain = 0
KCA1 221356Z 36017KT 14/09 A3003 RMK A01 T01400092  RH  073%=      5-min Rain = 0
KCA1 221357Z 36016KT 14/09 A3003 RMK A01 T01400091  RH  073%=      5-min Rain = 0
KCA1 221358Z 00015KT 14/09 A3003 RMK A01 T01410091  RH  072%=      5-min Rain = 0
KCA1 221359Z 35016G21KT 14/09 A3003 RMK A01 T01410093  RH  072%=      5-min Rain = 0
KCA1 221400Z 36016KT 14/09 A3003 RMK A01 T01420092  RH  072%=      5-min Rain = 0
KCA1 221401Z 35016G22KT 14/09 A3003 RMK A01 T01410091  RH  072%=      5-min Rain = 0
KCA1 221402Z 36017KT 14/09 A3003 RMK A01 T01410092  RH  072%=      5-min Rain = 0
KCA1 221403Z 35019G24KT 14/09 A3003 RMK A01 T01400091  RH  072%=      5-min Rain = 0
KCA1 221404Z 35020KT 14/09 A3003 RMK A01 T01400091  RH  072%=      5-min Rain = 0
KCA1 221405Z 35018KT 14/09 A3003 RMK A01 T01390091  RH  073%=      5-min Rain = 0
KCA1 221406Z 36018KT 14/09 A3003 RMK A01 T01390092  RH  073%=      5-min Rain = 0
KCA1 221407Z 00019KT 14/09 A3003 RMK A01 T01390091  RH  073%=      5-min Rain = 0
KCA1 221408Z 36019KT 14/09 A3003 RMK A01 T01390091  RH  073%=      5-min Rain = 0
KCA1 221409Z 00018KT 14/09 A3004 RMK A01 T01390091  RH  073%=      5-min Rain = 0
KCA1 221410Z 00013KT 14/09 A3004 RMK A01 T01390092  RH  073%=      5-min Rain = 0
KCA1 221411Z 35016G22KT 14/09 A3003 RMK A01 T01390092  RH  073%=      5-min Rain = 0
KCA1 221412Z 35021KT 14/09 A3004 RMK A01 T01400092  RH  073%=      5-min Rain = 0
KCA1 221413Z 36015KT 14/09 A3004 RMK A01 T01390091  RH  073%=      5-min Rain = 0
KCA1 221414Z 36012KT 14/09 A3004 RMK A01 T01390092  RH  073%=      5-min Rain = 0
KCA1 221415Z 00015G20KT 14/09 A3004 RMK A01 T01400093  RH  073%=      5-min Rain = 0
KCA1 221416Z 00016KT 14/09 A3004 RMK A01 T01410092  RH  072%=      5-min Rain = 0
KCA1 221417Z 36014KT 14/09 A3004 RMK A01 T01410092  RH  072%=      5-min Rain = 0
KCA1 221418Z 35014G19KT 14/09 A3004 RMK A01 T01430094  RH  072%=      5-min Rain = 0
KCA1 221419Z 35016KT 14/09 A3004 RMK A01 T01440093  RH  071%=      5-min Rain = 0
KCA1 221420Z 35015KT 15/09 A3004 RMK A01 T01450093  RH  071%=      5-min Rain = 0
KCA1 221421Z 35016KT 15/09 A3004 RMK A01 T01450093  RH  071%=      5-min Rain = 0
KCA1 221422Z 00016KT 15/09 A3004 RMK A01 T01460094  RH  071%=      5-min Rain = 0
KCA1 221423Z 01017KT 15/09 A3004 RMK A01 T01460093  RH  070%=      5-min Rain = 0
KCA1 221424Z 00014G19KT 15/09 A3004 RMK A01 T01450093  RH  071%=      5-min Rain = 0
KCA1 221425Z 35015G20KT 14/09 A3004 RMK A01 T01440093  RH  071%=      5-min Rain = 0
KCA1 221426Z 35015KT 15/09 A3004 RMK A01 T01450093  RH  071%=      5-min Rain = 0
KCA1 221427Z 34014KT 15/09 A3004 RMK A01 T01450093  RH  071%=      5-min Rain = 0
KCA1 221428Z 35017KT 15/09 A3004 RMK A01 T01470094  RH  070%=      5-min Rain = 0
KCA1 221429Z 35017KT 15/09 A3004 RMK A01 T01470093  RH  070%=      5-min Rain = 0
KCA1 221430Z 35013KT 15/09 A3004 RMK A01 T01470094  RH  070%=      5-min Rain = 0
KCA1 221431Z 35019KT 15/09 A3004 RMK A01 T01480094  RH  070%=      5-min Rain = 0
KCA1 221432Z 35017KT 15/09 A3004 RMK A01 T01480093  RH  069%=      5-min Rain = 0
KCA1 221433Z 36017KT 15/09 A3004 RMK A01 T01470093  RH  070%=      5-min Rain = 0
KCA1 221434Z 34015KT 15/09 A3004 RMK A01 T01470093  RH  070%=      5-min Rain = 0
KCA1 221435Z 35016KT 15/09 A3004 RMK A01 T01470093  RH  070%=      5-min Rain = 0
KCA1 221436Z 34015KT 15/09 A3004 RMK A01 T01480093  RH  070%=      5-min Rain = 0
KCA1 221437Z 35015KT 15/10 A3004 RMK A01 T01490095  RH  070%=      5-min Rain = 0
KCA1 221438Z 36015KT 15/10 A3004 RMK A01 T01510095  RH  069%=      5-min Rain = 0
KCA1 221439Z 35016KT 15/09 A3004 RMK A01 T01510094  RH  069%=      5-min Rain = 0
KCA1 221440Z 35016KT 15/09 A3004 RMK A01 T01500093  RH  069%=      5-min Rain = 0
KCA1 221441Z 36012KT 15/09 A3004 RMK A01 T01500094  RH  069%=      5-min Rain = 0
KCA1 221442Z 00015G20KT 15/10 A3004 RMK A01 T01520096  RH  069%=      5-min Rain = 0
KCA1 221443Z 00017KT 15/09 A3004 RMK A01 T01530094  RH  068%=      5-min Rain = 0
KCA1 221444Z 00016KT 15/09 A3004 RMK A01 T01530094  RH  068%=      5-min Rain = 0
KCA1 221445Z 00018KT 15/09 A3004 RMK A01 T01530094  RH  068%=      5-min Rain = 0
KCA1 221446Z 00018KT 15/09 A3004 RMK A01 T01530093  RH  067%=      5-min Rain = 0
KCA1 221447Z 00019KT 15/09 A3004 RMK A01 T01520094  RH  068%=      5-min Rain = 0
KCA1 221448Z 01016KT 15/09 A3004 RMK A01 T01520094  RH  068%=      5-min Rain = 0
KCA1 221449Z 35013KT 15/10 A3004 RMK A01 T01530096  RH  068%=      5-min Rain = 0
KCA1 221450Z 35015G20KT 16/10 A3004 RMK A01 T01570098  RH  068%=      5-min Rain = 0
KCA1 221451Z 00017KT 16/10 A3004 RMK A01 T01590096  RH  066%=      5-min Rain = 0
KCA1 221452Z 00018KT 16/10 A3004 RMK A01 T01590095  RH  066%=      5-min Rain = 0
KCA1 221453Z 36017KT 16/10 A3004 RMK A01 T01580095  RH  066%=      5-min Rain = 0
KCA1 221454Z 00014KT 16/10 A3004 RMK A01 T01570095  RH  067%=      5-min Rain = 0
KCA1 221455Z 36016KT 16/10 A3004 RMK A01 T01580096  RH  066%=      5-min Rain = 0
KCA1 221456Z 36018KT 16/10 A3004 RMK A01 T01590095  RH  066%=      5-min Rain = 0
KCA1 221457Z 35015KT 16/09 A3004 RMK A01 T01570093  RH  066%=      5-min Rain = 0
KCA1 221458Z 35016KT 16/10 A3004 RMK A01 T01560096  RH  067%=      5-min Rain = 0
KCA1 221459Z 35017KT 16/10 A3004 RMK A01 T01600097  RH  066%=      5-min Rain = 0
KCA1 221500Z 36017KT 16/10 A3004 RMK A01 T01610096  RH  065%=      5-min Rain = 0
KCA1 221501Z 35015KT 16/10 A3004 RMK A01 T01610096  RH  065%=      5-min Rain = 0
KCA1 221502Z 36018G24KT 16/10 A3004 RMK A01 T01620096  RH  065%=      5-min Rain = 0
KCA1 221503Z 35017KT 16/10 A3004 RMK A01 T01620096  RH  065%=      5-min Rain = 0
KCA1 221504Z 36020KT 16/10 A3004 RMK A01 T01620095  RH  065%=      5-min Rain = 0
KCA1 221505Z 35018KT 16/09 A3004 RMK A01 T01600094  RH  065%=      5-min Rain = 0
KCA1 221506Z 36019KT 16/10 A3004 RMK A01 T01600095  RH  065%=      5-min Rain = 0
KCA1 221507Z 00017G25KT 16/10 A3004 RMK A01 T01600095  RH  065%=      5-min Rain = 0
KCA1 221508Z 36020G25KT 16/10 A3004 RMK A01 T01610096  RH  065%=      5-min Rain = 0
KCA1 221509Z 00019KT 16/10 A3004 RMK A01 T01630096  RH  065%=      5-min Rain = 0
KCA1 221510Z 36018G23KT 16/10 A3004 RMK A01 T01630095  RH  064%=      5-min Rain = 0
KCA1 221511Z 35014KT 16/10 A3004 RMK A01 T01640098  RH  065%=      5-min Rain = 0
KCA1 221512Z 00021G26KT 17/10 A3004 RMK A01 T01680099  RH  064%=      5-min Rain = 0
KCA1 221513Z 00021G26KT 17/10 A3004 RMK A01 T01660095  RH  063%=      5-min Rain = 0
KCA1 221514Z 36020KT 16/10 A3004 RMK A01 T01640096  RH  064%=      5-min Rain = 0
KCA1 221515Z 36020KT 16/10 A3003 RMK A01 T01640097  RH  064%=      5-min Rain = 0
KCA1 221516Z 00020KT 16/10 A3003 RMK A01 T01640096  RH  064%=      5-min Rain = 0
KCA1 221517Z 01021KT 16/10 A3003 RMK A01 T01640097  RH  064%=      5-min Rain = 0
KCA1 221518Z 01019KT 16/10 A3003 RMK A01 T01630096  RH  064%=      5-min Rain = 0
KCA1 221519Z 00019KT 16/10 A3003 RMK A01 T01630097  RH  065%=      5-min Rain = 0
KCA1 221520Z 01018KT 16/10 A3003 RMK A01 T01630097  RH  065%=      5-min Rain = 0
KCA1 221521Z 00019KT 16/10 A3003 RMK A01 T01640097  RH  065%=      5-min Rain = 0
KCA1 221522Z 36020KT 17/10 A3003 RMK A01 T01660098  RH  064%=      5-min Rain = 0
KCA1 221523Z 36020KT 17/10 A3003 RMK A01 T01680097  RH  063%=      5-min Rain = 0
KCA1 221524Z 35020KT 17/10 A3003 RMK A01 T01680096  RH  062%=      5-min Rain = 0
KCA1 221525Z 36018KT 17/10 A3003 RMK A01 T01690097  RH  063%=      5-min Rain = 0
KCA1 221526Z 35019G24KT 17/10 A3003 RMK A01 T01690097  RH  063%=      5-min Rain = 0
KCA1 221527Z 00019KT 17/10 A3003 RMK A01 T01690096  RH  062%=      5-min Rain = 0
KCA1 221528Z 36018G24KT 17/10 A3003 RMK A01 T01690097  RH  062%=      5-min Rain = 0
KCA1 221529Z 34017KT 17/10 A3004 RMK A01 T01710099  RH  062%=      5-min Rain = 0
KCA1 221530Z 00017KT 17/10 A3004 RMK A01 T01740099  RH  062%=      5-min Rain = 0
KCA1 221531Z 01016KT 18/10 A3004 RMK A01 T01750099  RH  061%=      5-min Rain = 0
KCA1 221532Z 36021KT 18/10 A3004 RMK A01 T01750099  RH  061%=      5-min Rain = 0
KCA1 221533Z 01019KT 17/10 A3004 RMK A01 T01740097  RH  061%=      5-min Rain = 0
KCA1 221534Z 01017G22KT 17/10 A3004 RMK A01 T01740098  RH  061%=      5-min Rain = 0
KCA1 221535Z 35018KT 18/10 A3004 RMK A01 T01750098  RH  060%=      5-min Rain = 0
KCA1 221536Z 01015KT 18/10 A3004 RMK A01 T01760100  RH  061%=      5-min Rain = 0
KCA1 221537Z 35016G22KT 18/10 A3004 RMK A01 T01800103  RH  061%=      5-min Rain = 0
KCA1 221538Z 35020KT 18/10 A3004 RMK A01 T01820100  RH  059%=      5-min Rain = 0
KCA1 221539Z 36021KT 18/10 A3004 RMK A01 T01800098  RH  059%=      5-min Rain = 0
KCA1 221540Z 00019KT 18/10 A3004 RMK A01 T01780098  RH  060%=      5-min Rain = 0
KCA1 221541Z 00021KT 18/10 A3004 RMK A01 T01770099  RH  060%=      5-min Rain = 0
KCA1 221542Z 01019G24KT 18/10 A3004 RMK A01 T01770098  RH  060%=      5-min Rain = 0
KCA1 221543Z 00019G24KT 18/10 A3004 RMK A01 T01770099  RH  060%=      5-min Rain = 0
KCA1 221544Z 35016G22KT 18/10 A3005 RMK A01 T01800101  RH  060%=      5-min Rain = 0
KCA1 221545Z 01019KT 18/10 A3005 RMK A01 T01820100  RH  059%=      5-min Rain = 0
KCA1 221546Z 01020G25KT 18/10 A3005 RMK A01 T01770097  RH  059%=      5-min Rain = 0
KCA1 221547Z 36017KT 17/10 A3005 RMK A01 T01730097  RH  061%=      5-min Rain = 0
KCA1 221548Z 34016KT 17/10 A3005 RMK A01 T01730098  RH  061%=      5-min Rain = 0
KCA1 221549Z 35019KT 17/10 A3005 RMK A01 T01730099  RH  062%=      5-min Rain = 0
KCA1 221550Z 35017G23KT 17/10 A3005 RMK A01 T01730098  RH  061%=      5-min Rain = 0
KCA1 221551Z 35017KT 17/10 A3005 RMK A01 T01730099  RH  062%=      5-min Rain = 0
KCA1 221552Z 00018KT 17/10 A3005 RMK A01 T01740098  RH  061%=      5-min Rain = 0
KCA1 221553Z 35018KT 17/10 A3005 RMK A01 T01730098  RH  061%=      5-min Rain = 0
KCA1 221554Z 35020KT 17/10 A3005 RMK A01 T01740098  RH  061%=      5-min Rain = 0
KCA1 221555Z 36020G25KT 18/10 A3005 RMK A01 T01750098  RH  061%=      5-min Rain = 0
KCA1 221556Z 36021KT 18/10 A3005 RMK A01 T01750098  RH  061%=      5-min Rain = 0
KCA1 221557Z 00021KT 17/10 A3005 RMK A01 T01730097  RH  061%=      5-min Rain = 0
KCA1 221558Z 35020KT 17/10 A3005 RMK A01 T01720097  RH  061%=      5-min Rain = 0
KCA1 221559Z 36017KT 17/10 A3005 RMK A01 T01720098  RH  062%=      5-min Rain = 0
KCA1 221600Z 35018KT 17/10 A3005 RMK A01 T01720098  RH  062%=      5-min Rain = 0
KCA1 221601Z 35018KT 17/10 A3005 RMK A01 T01740099  RH  061%=      5-min Rain = 0
KCA1 221602Z 35017G23KT 18/10 A3005 RMK A01 T01770100  RH  061%=      5-min Rain = 0
KCA1 221603Z 35018KT 18/10 A3005 RMK A01 T01790099  RH  060%=      5-min Rain = 0
KCA1 221604Z 34017KT 18/10 A3005 RMK A01 T01770099  RH  060%=      5-min Rain = 0
KCA1 221605Z 34017KT 18/10 A3005 RMK A01 T01770099  RH  060%=      5-min Rain = 0
KCA1 221606Z 35016KT 18/10 A3005 RMK A01 T01770099  RH  060%=      5-min Rain = 0
KCA1 221607Z 35017G22KT 18/10 A3005 RMK A01 T01760099  RH  060%=      5-min Rain = 0
KCA1 221608Z 01016G21KT 18/10 A3005 RMK A01 T01760099  RH  061%=      5-min Rain = 0
KCA1 221609Z 01017KT 18/10 A3005 RMK A01 T01770099  RH  060%=      5-min Rain = 0
KCA1 221610Z 01017G24KT 18/10 A3005 RMK A01 T01760098  RH  060%=      5-min Rain = 0
KCA1 221611Z 00017KT 18/10 A3005 RMK A01 T01760099  RH  061%=      5-min Rain = 0
KCA1 221612Z 36015KT 18/10 A3005 RMK A01 T01790101  RH  060%=      5-min Rain = 0
KCA1 221613Z 35019KT 18/10 A3005 RMK A01 T01820101  RH  059%=      5-min Rain = 0
KCA1 221614Z 36017KT 18/10 A3005 RMK A01 T01830100  RH  058%=      5-min Rain = 0
KCA1 221615Z 36014G21KT 18/10 A3005 RMK A01 T01830101  RH  059%=      5-min Rain = 0
KCA1 221616Z 00016KT 19/10 A3005 RMK A01 T01850102  RH  058%=      5-min Rain = 0
KCA1 221617Z 00017KT 19/10 A3005 RMK A01 T01860101  RH  058%=      5-min Rain = 0
KCA1 221618Z 36015G20KT 18/10 A3005 RMK A01 T01840100  RH  058%=      5-min Rain = 0
KCA1 221619Z 36016KT 18/10 A3005 RMK A01 T01840102  RH  059%=      5-min Rain = 0
KCA1 221620Z 35015KT 19/10 A3005 RMK A01 T01850100  RH  058%=      5-min Rain = 0
KCA1 221621Z 35015KT 18/10 A3006 RMK A01 T01840101  RH  058%=      5-min Rain = 0
KCA1 221622Z 36018KT 19/10 A3006 RMK A01 T01850101  RH  058%=      5-min Rain = 0
KCA1 221623Z 35017G22KT 18/10 A3006 RMK A01 T01840100  RH  058%=      5-min Rain = 0
KCA1 221624Z 35016G22KT 18/10 A3006 RMK A01 T01830100  RH  058%=      5-min Rain = 0
KCA1 221625Z 35018KT 18/10 A3006 RMK A01 T01840102  RH  059%=      5-min Rain = 0
KCA1 221626Z 35016KT 19/10 A3006 RMK A01 T01850100  RH  058%=      5-min Rain = 0
KCA1 221627Z 35017KT 19/10 A3006 RMK A01 T01860100  RH  057%=      5-min Rain = 0
KCA1 221628Z 00016KT 19/10 A3006 RMK A01 T01850100  RH  058%=      5-min Rain = 0
KCA1 221629Z 00014G19KT 19/10 A3006 RMK A01 T01850101  RH  058%=      5-min Rain = 0
KCA1 221630Z 01017KT 19/10 A3006 RMK A01 T01860101  RH  058%=      5-min Rain = 0
KCA1 221631Z 01017KT 19/10 A3006 RMK A01 T01850100  RH  058%=      5-min Rain = 0
KCA1 221632Z 36016KT 18/10 A3006 RMK A01 T01820099  RH  058%=      5-min Rain = 0
KCA1 221633Z 35017KT 18/10 A3006 RMK A01 T01800099  RH  059%=      5-min Rain = 0
KCA1 221634Z 35017KT 18/10 A3006 RMK A01 T01800099  RH  059%=      5-min Rain = 0
KCA1 221635Z 36018KT 18/10 A3006 RMK A01 T01800099  RH  059%=      5-min Rain = 0
KCA1 221636Z 36014G19KT 18/10 A3007 RMK A01 T01800099  RH  059%=      5-min Rain = 0
KCA1 221637Z 01014KT 18/10 A3007 RMK A01 T01820100  RH  059%=      5-min Rain = 0
KCA1 221638Z 01013G19KT 18/10 A3006 RMK A01 T01820099  RH  058%=      5-min Rain = 0
KCA1 221639Z 35016KT 18/10 A3006 RMK A01 T01820100  RH  058%=      5-min Rain = 0
KCA1 221640Z 36013KT 18/10 A3006 RMK A01 T01830101  RH  059%=      5-min Rain = 0
KCA1 221641Z 36013G18KT 19/10 A3006 RMK A01 T01850101  RH  058%=      5-min Rain = 0
KCA1 221642Z 00016KT 19/10 A3006 RMK A01 T01870101  RH  057%=      5-min Rain = 0
KCA1 221643Z 01016KT 19/10 A3006 RMK A01 T01860100  RH  057%=      5-min Rain = 0
KCA1 221644Z 01014G19KT 19/10 A3006 RMK A01 T01870101  RH  057%=      5-min Rain = 0
KCA1 221645Z 36013KT 19/10 A3006 RMK A01 T01890103  RH  057%=      5-min Rain = 0
KCA1 221646Z 35017KT 19/10 A3006 RMK A01 T01910101  RH  056%=      5-min Rain = 0
KCA1 221647Z 36013KT 19/10 A3006 RMK A01 T01890099  RH  056%=      5-min Rain = 0
KCA1 221648Z 01018KT 19/10 A3006 RMK A01 T01870100  RH  057%=      5-min Rain = 0
KCA1 221649Z 01018KT 19/10 A3006 RMK A01 T01870099  RH  057%=      5-min Rain = 0
KCA1 221650Z 36018KT 19/10 A3006 RMK A01 T01850098  RH  057%=      5-min Rain = 0
KCA1 221651Z 35012KT 18/10 A3006 RMK A01 T01840099  RH  058%=      5-min Rain = 0
KCA1 221652Z 00015G22KT 19/10 A3006 RMK A01 T01870103  RH  058%=      5-min Rain = 0
KCA1 221653Z 01017KT 19/10 A3006 RMK A01 T01890099  RH  056%=      5-min Rain = 0
KCA1 221654Z 00017KT 19/10 A3006 RMK A01 T01860099  RH  057%=      5-min Rain = 0
KCA1 221655Z 00015KT 19/10 A3006 RMK A01 T01850098  RH  057%=      5-min Rain = 0
KCA1 221656Z 36016KT 18/10 A3006 RMK A01 T01840097  RH  057%=      5-min Rain = 0
KCA1 221657Z 00017KT 19/10 A3006 RMK A01 T01850101  RH  058%=      5-min Rain = 0
KCA1 221658Z 01017KT 19/10 A3006 RMK A01 T01870099  RH  057%=      5-min Rain = 0
KCA1 221659Z 35020KT 19/10 A3006 RMK A01 T01870100  RH  057%=      5-min Rain = 0
KCA1 221700Z 35019KT 19/10 A3006 RMK A01 T01870099  RH  056%=      5-min Rain = 0
KCA1 221701Z 00019KT 19/10 A3006 RMK A01 T01870099  RH  056%=      5-min Rain = 0
KCA1 221702Z 00015G20KT 19/10 A3006 RMK A01 T01860098  RH  057%=      5-min Rain = 0
KCA1 221703Z 36013KT 19/10 A3006 RMK A01 T01850100  RH  057%=      5-min Rain = 0
KCA1 221704Z 36018KT 19/10 A3006 RMK A01 T01880101  RH  057%=      5-min Rain = 0
KCA1 221705Z 36014KT 19/10 A3006 RMK A01 T01890100  RH  056%=      5-min Rain = 0
KCA1 221706Z 01016KT 19/10 A3006 RMK A01 T01900101  RH  056%=      5-min Rain = 0
KCA1 221707Z 01016KT 19/10 A3006 RMK A01 T01910099  RH  055%=      5-min Rain = 0
KCA1 221708Z 01017G23KT 19/10 A3006 RMK A01 T01900098  RH  055%=      5-min Rain = 0
KCA1 221709Z 01020KT 19/10 A3006 RMK A01 T01890098  RH  055%=      5-min Rain = 0
KCA1 221710Z 01018KT 19/10 A3006 RMK A01 T01880098  RH  056%=      5-min Rain = 0
KCA1 221711Z 01013KT 19/10 A3006 RMK A01 T01880099  RH  056%=      5-min Rain = 0
KCA1 221712Z 01013KT 19/10 A3006 RMK A01 T01890099  RH  056%=      5-min Rain = 0
KCA1 221713Z 01015KT 19/10 A3006 RMK A01 T01900100  RH  056%=      5-min Rain = 0
KCA1 221714Z 01015KT 19/10 A3005 RMK A01 T01930100  RH  055%=      5-min Rain = 0
KCA1 221715Z 01019KT 19/10 A3006 RMK A01 T01930099  RH  054%=      5-min Rain = 0
KCA1 221716Z 00015KT 19/10 A3005 RMK A01 T01910098  RH  055%=      5-min Rain = 0
KCA1 221717Z 01014G19KT 19/10 A3005 RMK A01 T01880098  RH  055%=      5-min Rain = 0
KCA1 221718Z 01018KT 19/10 A3005 RMK A01 T01880099  RH  056%=      5-min Rain = 0
KCA1 221719Z 02015G21KT 19/10 A3005 RMK A01 T01880099  RH  056%=      5-min Rain = 0
KCA1 221720Z 01020KT 19/10 A3006 RMK A01 T01880099  RH  056%=      5-min Rain = 0
KCA1 221721Z 02018KT 19/10 A3006 RMK A01 T01880099  RH  056%=      5-min Rain = 0
KCA1 221722Z 02015G20KT 19/10 A3006 RMK A01 T01880099  RH  056%=      5-min Rain = 0
KCA1 221723Z 02017KT 19/10 A3006 RMK A01 T01880098  RH  056%=      5-min Rain = 0
KCA1 221724Z 01016G21KT 19/10 A3006 RMK A01 T01890099  RH  056%=      5-min Rain = 0
KCA1 221725Z 01016KT 19/10 A3006 RMK A01 T01900098  RH  055%=      5-min Rain = 0
KCA1 221726Z 01017KT 19/10 A3006 RMK A01 T01900098  RH  055%=      5-min Rain = 0
KCA1 221727Z 02019KT 19/10 A3006 RMK A01 T01890099  RH  056%=      5-min Rain = 0
KCA1 221728Z 00018KT 19/10 A3005 RMK A01 T01890098  RH  056%=      5-min Rain = 0
KCA1 221729Z 01016KT 19/10 A3005 RMK A01 T01890098  RH  055%=      5-min Rain = 0
KCA1 221730Z 01015KT 19/10 A3005 RMK A01 T01910097  RH  055%=      5-min Rain = 0
KCA1 221731Z 01016KT 19/10 A3005 RMK A01 T01930099  RH  055%=      5-min Rain = 0
KCA1 221732Z 01015KT 19/10 A3005 RMK A01 T01930098  RH  054%=      5-min Rain = 0
KCA1 221733Z 01017KT 19/10 A3006 RMK A01 T01930099  RH  054%=      5-min Rain = 0
KCA1 221734Z 01018KT 19/10 A3006 RMK A01 T01920099  RH  055%=      5-min Rain = 0
KCA1 221735Z 01016KT 19/10 A3006 RMK A01 T01900098  RH  055%=      5-min Rain = 0
KCA1 221736Z 01020KT 19/10 A3006 RMK A01 T01890099  RH  056%=      5-min Rain = 0
KCA1 221737Z 01016KT 19/10 A3006 RMK A01 T01900099  RH  056%=      5-min Rain = 0
KCA1 221738Z 00016KT 19/10 A3005 RMK A01 T01910101  RH  056%=      5-min Rain = 0
KCA1 221739Z 00019KT 19/10 A3005 RMK A01 T01930101  RH  055%=      5-min Rain = 0
KCA1 221740Z 01018KT 19/10 A3006 RMK A01 T01930099  RH  055%=      5-min Rain = 0
KCA1 221741Z 01018KT 19/10 A3006 RMK A01 T01910099  RH  055%=      5-min Rain = 0
KCA1 221742Z 01020KT 19/10 A3006 RMK A01 T01910099  RH  055%=      5-min Rain = 0
KCA1 221743Z 00016G22KT 19/10 A3006 RMK A01 T01900098  RH  055%=      5-min Rain = 0
KCA1 221744Z 36013KT 19/10 A3006 RMK A01 T01910101  RH  056%=      5-min Rain = 0
KCA1 221745Z 35017G22KT 19/10 A3006 RMK A01 T01940101  RH  055%=      5-min Rain = 0
KCA1 221746Z 35017G22KT 20/10 A3006 RMK A01 T01950099  RH  054%=      5-min Rain = 0
KCA1 221747Z 01021KT 19/10 A3006 RMK A01 T01940099  RH  054%=      5-min Rain = 0
KCA1 221748Z 02020KT 19/10 A3006 RMK A01 T01930098  RH  054%=      5-min Rain = 0
KCA1 221749Z 02018KT 19/10 A3006 RMK A01 T01940099  RH  054%=      5-min Rain = 0
KCA1 221750Z 02014KT 19/10 A3006 RMK A01 T01930098  RH  054%=      5-min Rain = 0
KCA1 221751Z 02019KT 19/10 A3006 RMK A01 T01930099  RH  054%=      5-min Rain = 0
KCA1 221752Z 01019KT 19/10 A3006 RMK A01 T01930097  RH  054%=      5-min Rain = 0
KCA1 221753Z 02015KT 19/10 A3006 RMK A01 T01920096  RH  054%=      5-min Rain = 0
KCA1 221754Z 01016KT 19/10 A3006 RMK A01 T01910097  RH  054%=      5-min Rain = 0
KCA1 221755Z 01017KT 19/10 A3006 RMK A01 T01930098  RH  054%=      5-min Rain = 0
KCA1 221756Z 01017KT 19/10 A3006 RMK A01 T01920097  RH  054%=      5-min Rain = 0
KCA1 221757Z 02018G23KT 19/10 A3006 RMK A01 T01910097  RH  055%=      5-min Rain = 0
KCA1 221758Z 01020KT 19/10 A3006 RMK A01 T01910096  RH  054%=      5-min Rain = 0
KCA1 221759Z 02017KT 19/10 A3006 RMK A01 T01910095  RH  054%=      5-min Rain = 0
KCA1 221800Z 00016G21KT 19/10 A3006 RMK A01 T01900096  RH  054%=      5-min Rain = 0
KCA1 221801Z 01019G24KT 19/10 A3006 RMK A01 T01910096  RH  054%=      5-min Rain = 0
KCA1 221802Z 00019KT 19/10 A3006 RMK A01 T01910095  RH  053%=      5-min Rain = 0
KCA1 221803Z 01017KT 19/10 A3006 RMK A01 T01900096  RH  054%=      5-min Rain = 0
KCA1 221804Z 01016KT 19/10 A3006 RMK A01 T01900096  RH  054%=      5-min Rain = 0
KCA1 221805Z 36019KT 19/10 A3006 RMK A01 T01900097  RH  054%=      5-min Rain = 0
KCA1 221806Z 00018KT 19/10 A3006 RMK A01 T01890096  RH  055%=      5-min Rain = 0
KCA1 221807Z 36016KT 19/10 A3006 RMK A01 T01890097  RH  055%=      5-min Rain = 0
KCA1 221808Z 00017KT 19/10 A3006 RMK A01 T01900097  RH  055%=      5-min Rain = 0
KCA1 221809Z 01017KT 19/10 A3006 RMK A01 T01900097  RH  055%=      5-min Rain = 0
KCA1 221810Z 00018KT 19/10 A3006 RMK A01 T01910097  RH  054%=      5-min Rain = 0
KCA1 221811Z 36017KT 19/10 A3006 RMK A01 T01910097  RH  054%=      5-min Rain = 0
KCA1 221812Z 01013KT 19/10 A3007 RMK A01 T01910097  RH  054%=      5-min Rain = 0
KCA1 221813Z 01014KT 19/10 A3007 RMK A01 T01920099  RH  055%=      5-min Rain = 0
KCA1 221814Z 01016KT 19/10 A3007 RMK A01 T01940098  RH  054%=      5-min Rain = 0
KCA1 221815Z 02017KT 19/10 A3007 RMK A01 T01940097  RH  053%=      5-min Rain = 0
KCA1 221816Z 01013KT 19/10 A3007 RMK A01 T01930097  RH  054%=      5-min Rain = 0
KCA1 221817Z 01015KT 19/10 A3007 RMK A01 T01920097  RH  054%=      5-min Rain = 0
KCA1 221818Z 01017KT 19/10 A3007 RMK A01 T01920097  RH  054%=      5-min Rain = 0
KCA1 221819Z 36014KT 19/10 A3007 RMK A01 T01900096  RH  054%=      5-min Rain = 0
KCA1 221820Z 36015G20KT 19/10 A3007 RMK A01 T01900097  RH  055%=      5-min Rain = 0
KCA1 221821Z 35016KT 19/10 A3007 RMK A01 T01890096  RH  055%=      5-min Rain = 0
KCA1 221822Z 35016KT 19/10 A3007 RMK A01 T01890096  RH  055%=      5-min Rain = 0
KCA1 221823Z 00017KT 19/10 A3007 RMK A01 T01890095  RH  055%=      5-min Rain = 0
KCA1 221824Z 35016KT 19/10 A3007 RMK A01 T01880095  RH  055%=      5-min Rain = 0
KCA1 221825Z 00018KT 19/10 A3007 RMK A01 T01880095  RH  055%=      5-min Rain = 0
KCA1 221826Z 01014G19KT 19/09 A3007 RMK A01 T01880094  RH  054%=      5-min Rain = 0
KCA1 221827Z 01014KT 19/10 A3007 RMK A01 T01880096  RH  055%=      5-min Rain = 0
KCA1 221828Z 01017KT 19/10 A3008 RMK A01 T01890096  RH  055%=      5-min Rain = 0
KCA1 221829Z 01016KT 19/10 A3008 RMK A01 T01890095  RH  054%=      5-min Rain = 0
KCA1 221830Z 01014KT 19/09 A3008 RMK A01 T01870094  RH  055%=      5-min Rain = 0
KCA1 221831Z 00013KT 19/09 A3007 RMK A01 T01870094  RH  055%=      5-min Rain = 0
KCA1 221832Z 35015KT 19/10 A3007 RMK A01 T01870095  RH  055%=      5-min Rain = 0
KCA1 221833Z 00014KT 19/10 A3007 RMK A01 T01870095  RH  055%=      5-min Rain = 0
KCA1 221834Z 01015KT 19/10 A3008 RMK A01 T01860095  RH  056%=      5-min Rain = 0
KCA1 221835Z 01015KT 19/10 A3008 RMK A01 T01870096  RH  055%=      5-min Rain = 0
KCA1 221836Z 01014KT 19/10 A3008 RMK A01 T01870095  RH  055%=      5-min Rain = 0
KCA1 221837Z 36013KT 19/10 A3008 RMK A01 T01860096  RH  056%=      5-min Rain = 0
KCA1 221838Z 35013KT 19/10 A3008 RMK A01 T01850097  RH  056%=      5-min Rain = 0
KCA1 221839Z 01014G19KT 19/10 A3008 RMK A01 T01870099  RH  056%=      5-min Rain = 0
KCA1 221840Z 01016KT 19/10 A3008 RMK A01 T01880097  RH  055%=      5-min Rain = 0
KCA1 221841Z 01017KT 19/10 A3008 RMK A01 T01870095  RH  055%=      5-min Rain = 0
KCA1 221842Z 01013KT 19/10 A3008 RMK A01 T01850095  RH  056%=      5-min Rain = 0
KCA1 221843Z 00014KT 18/10 A3008 RMK A01 T01840095  RH  056%=      5-min Rain = 0
KCA1 221844Z 01014KT 18/10 A3008 RMK A01 T01840095  RH  056%=      5-min Rain = 0
KCA1 221845Z 00015KT 18/10 A3008 RMK A01 T01840096  RH  056%=      5-min Rain = 0
KCA1 221846Z 35014KT 18/10 A3008 RMK A01 T01840096  RH  056%=      5-min Rain = 0
KCA1 221847Z 35015KT 18/10 A3008 RMK A01 T01840096  RH  057%=      5-min Rain = 0
KCA1 221848Z 36014KT 18/10 A3008 RMK A01 T01840095  RH  056%=      5-min Rain = 0
KCA1 221849Z 00015KT 18/10 A3008 RMK A01 T01830095  RH  057%=      5-min Rain = 0
KCA1 221850Z 00015KT 18/10 A3008 RMK A01 T01830096  RH  057%=      5-min Rain = 0
KCA1 221851Z 35015KT 18/10 A3008 RMK A01 T01830095  RH  057%=      5-min Rain = 0
KCA1 221852Z 36015KT 18/10 A3008 RMK A01 T01830096  RH  057%=      5-min Rain = 0
KCA1 221853Z 00015KT 18/10 A3008 RMK A01 T01830095  RH  056%=      5-min Rain = 0
KCA1 221854Z 00014KT 18/09 A3008 RMK A01 T01820094  RH  057%=      5-min Rain = 0
KCA1 221855Z 36014KT 18/10 A3008 RMK A01 T01820096  RH  057%=      5-min Rain = 0
KCA1 221856Z 01014G19KT 18/10 A3007 RMK A01 T01840097  RH  057%=      5-min Rain = 0
KCA1 221857Z 01018KT 19/10 A3007 RMK A01 T01850096  RH  056%=      5-min Rain = 0
KCA1 221858Z 02018KT 18/09 A3007 RMK A01 T01840094  RH  056%=      5-min Rain = 0
KCA1 221859Z 02014G19KT 18/10 A3006 RMK A01 T01830095  RH  056%=      5-min Rain = 0
KCA1 221900Z 02019G24KT 18/10 A3005 RMK A01 T01830095  RH  056%=      5-min Rain = 0
KCA1 221901Z 02021KT 18/09 A3005 RMK A01 T01830094  RH  056%=      5-min Rain = 0
KCA1 221902Z 01019KT 18/09 A3005 RMK A01 T01830094  RH  056%=      5-min Rain = 0
KCA1 221903Z 01016KT 18/10 A3005 RMK A01 T01830095  RH  056%=      5-min Rain = 0
KCA1 221904Z 01016KT 18/10 A3006 RMK A01 T01830095  RH  056%=      5-min Rain = 0
KCA1 221905Z 00014KT 18/09 A3007 RMK A01 T01830094  RH  056%=      5-min Rain = 0
KCA1 221906Z 00012KT 18/10 A3007 RMK A01 T01830095  RH  056%=      5-min Rain = 0
KCA1 221907Z 35012KT 18/10 A3008 RMK A01 T01830095  RH  056%=      5-min Rain = 0
KCA1 221908Z 36011KT 18/10 A3008 RMK A01 T01840095  RH  056%=      5-min Rain = 0
KCA1 221909Z 36014KT 18/10 A3008 RMK A01 T01840096  RH  056%=      5-min Rain = 0
KCA1 221910Z 36015KT 18/10 A3007 RMK A01 T01840095  RH  056%=      5-min Rain = 0
KCA1 221911Z 00015KT 18/10 A3007 RMK A01 T01840095  RH  056%=      5-min Rain = 0
KCA1 221912Z 02014G19KT 18/10 A3006 RMK A01 T01830095  RH  057%=      5-min Rain = 0
KCA1 221913Z 02019KT 18/10 A3006 RMK A01 T01830095  RH  056%=      5-min Rain = 0
KCA1 221914Z 01019KT 18/09 A3006 RMK A01 T01820094  RH  056%=      5-min Rain = 0
KCA1 221915Z 00018KT 18/09 A3006 RMK A01 T01820094  RH  057%=      5-min Rain = 0
KCA1 221916Z 01018KT 18/09 A3006 RMK A01 T01820094  RH  057%=      5-min Rain = 0
KCA1 221917Z 00014KT 18/09 A3006 RMK A01 T01820094  RH  057%=      5-min Rain = 0
KCA1 221918Z 35013KT 18/09 A3006 RMK A01 T01810094  RH  057%=      5-min Rain = 0
KCA1 221919Z 36013KT 18/10 A3007 RMK A01 T01820095  RH  057%=      5-min Rain = 0
KCA1 221920Z 01014KT 18/09 A3007 RMK A01 T01820094  RH  057%=      5-min Rain = 0
KCA1 221921Z 01011KT 18/09 A3008 RMK A01 T01820094  RH  056%=      5-min Rain = 0
KCA1 221922Z 01015KT 18/10 A3008 RMK A01 T01820095  RH  057%=      5-min Rain = 0
KCA1 221923Z 35011KT 18/10 A3008 RMK A01 T01830095  RH  056%=      5-min Rain = 0
KCA1 221924Z 35010KT 18/10 A3008 RMK A01 T01840096  RH  057%=      5-min Rain = 0
KCA1 221925Z 00014KT 19/10 A3008 RMK A01 T01860096  RH  056%=      5-min Rain = 0
KCA1 221926Z 02011KT 19/10 A3008 RMK A01 T01860095  RH  055%=      5-min Rain = 0
KCA1 221927Z 02011KT 19/10 A3008 RMK A01 T01870096  RH  055%=      5-min Rain = 0
KCA1 221928Z 00010KT 19/09 A3008 RMK A01 T01870094  RH  055%=      5-min Rain = 0
KCA1 221929Z 35011KT 19/10 A3008 RMK A01 T01870095  RH  055%=      5-min Rain = 0
KCA1 221930Z 36016KT 19/10 A3008 RMK A01 T01870095  RH  055%=      5-min Rain = 0
KCA1 221931Z 00016KT 19/10 A3008 RMK A01 T01870095  RH  055%=      5-min Rain = 0
KCA1 221932Z 00016KT 19/10 A3008 RMK A01 T01870095  RH  055%=      5-min Rain = 0
KCA1 221933Z 00014KT 19/09 A3008 RMK A01 T01850092  RH  054%=      5-min Rain = 0
KCA1 221934Z 00014KT 18/09 A3007 RMK A01 T01840093  RH  055%=      5-min Rain = 0
KCA1 221935Z 36015KT 18/09 A3007 RMK A01 T01840093  RH  055%=      5-min Rain = 0
KCA1 221936Z 35014KT 19/09 A3007 RMK A01 T01860094  RH  055%=      5-min Rain = 0
KCA1 221937Z 35016KT 19/09 A3007 RMK A01 T01870092  RH  054%=      5-min Rain = 0
KCA1 221938Z 35017KT 19/09 A3006 RMK A01 T01860092  RH  054%=      5-min Rain = 0
KCA1 221939Z 01017KT 19/09 A3006 RMK A01 T01870093  RH  055%=      5-min Rain = 0
KCA1 221940Z 01017KT 19/09 A3006 RMK A01 T01880092  RH  054%=      5-min Rain = 0
KCA1 221941Z 01015KT 19/09 A3006 RMK A01 T01880093  RH  054%=      5-min Rain = 0
KCA1 221942Z 01018KT 19/09 A3005 RMK A01 T01880092  RH  054%=      5-min Rain = 0
KCA1 221943Z 00018G23KT 19/09 A3005 RMK A01 T01880093  RH  054%=      5-min Rain = 0
KCA1 221944Z 00023KT 19/09 A3004 RMK A01 T01880093  RH  054%=      5-min Rain = 0
KCA1 221945Z 01023KT 19/09 A3004 RMK A01 T01880093  RH  054%=      5-min Rain = 0
KCA1 221946Z 01022KT 19/09 A3004 RMK A01 T01870092  RH  054%=      5-min Rain = 0
KCA1 221947Z 01019G24KT 19/09 A3005 RMK A01 T01860092  RH  054%=      5-min Rain = 0
KCA1 221948Z 01015G20KT 19/09 A3005 RMK A01 T01860093  RH  055%=      5-min Rain = 0
KCA1 221949Z 36013G18KT 19/09 A3006 RMK A01 T01860093  RH  055%=      5-min Rain = 0
KCA1 221950Z 00011KT 19/09 A3007 RMK A01 T01850092  RH  055%=      5-min Rain = 0
KCA1 221951Z 34010KT 19/09 A3008 RMK A01 T01860093  RH  055%=      5-min Rain = 0
KCA1 221952Z 34013KT 19/09 A3008 RMK A01 T01850092  RH  055%=      5-min Rain = 0
KCA1 221953Z 35010KT 19/09 A3009 RMK A01 T01850092  RH  055%=      5-min Rain = 0
KCA1 221954Z 36011KT 19/09 A3008 RMK A01 T01850093  RH  055%=      5-min Rain = 0
KCA1 221955Z 01013KT 19/09 A3008 RMK A01 T01860092  RH  055%=      5-min Rain = 0
KCA1 221956Z 01014KT 19/09 A3008 RMK A01 T01850091  RH  054%=      5-min Rain = 0
KCA1 221957Z 36011KT 19/09 A3008 RMK A01 T01850092  RH  055%=      5-min Rain = 0
KCA1 221958Z 01011KT 19/09 A3008 RMK A01 T01850093  RH  055%=      5-min Rain = 0
KCA1 221959Z 01014KT 19/09 A3008 RMK A01 T01860093  RH  055%=      5-min Rain = 0
KCA1 222000Z 00014KT 19/09 A3008 RMK A01 T01860092  RH  054%=      5-min Rain = 0
KCA1 222001Z 00013KT 19/09 A3008 RMK A01 T01860092  RH  054%=      5-min Rain = 0
KCA1 222002Z 01014KT 19/09 A3008 RMK A01 T01860092  RH  054%=      5-min Rain = 0
KCA1 222003Z 02015KT 19/09 A3008 RMK A01 T01850091  RH  054%=      5-min Rain = 0
KCA1 222004Z 01014KT 19/09 A3008 RMK A01 T01850091  RH  054%=      5-min Rain = 0
KCA1 222005Z 01011KT 19/09 A3008 RMK A01 T01850091  RH  054%=      5-min Rain = 0
KCA1 222006Z 01013KT 19/09 A3008 RMK A01 T01850091  RH  054%=      5-min Rain = 0
KCA1 222007Z 02012KT 19/09 A3008 RMK A01 T01860091  RH  054%=      5-min Rain = 0
KCA1 222008Z 01012KT 19/09 A3008 RMK A01 T01860092  RH  054%=      5-min Rain = 0
KCA1 222009Z 00013KT 19/09 A3008 RMK A01 T01860091  RH  054%=      5-min Rain = 0
KCA1 222010Z 01014KT 19/09 A3008 RMK A01 T01860091  RH  054%=      5-min Rain = 0
KCA1 222011Z 00014KT 19/09 A3008 RMK A01 T01860091  RH  054%=      5-min Rain = 0
KCA1 222012Z 36013KT 19/09 A3007 RMK A01 T01870091  RH  054%=      5-min Rain = 0
KCA1 222013Z 35013KT 19/09 A3007 RMK A01 T01870092  RH  054%=      5-min Rain = 0
KCA1 222014Z 36012G17KT 19/09 A3007 RMK A01 T01880092  RH  054%=      5-min Rain = 0
KCA1 222015Z 36015KT 19/09 A3007 RMK A01 T01900092  RH  053%=      5-min Rain = 0
KCA1 222016Z 36013KT 19/09 A3007 RMK A01 T01890091  RH  053%=      5-min Rain = 0
KCA1 222017Z 36012KT 19/09 A3008 RMK A01 T01890092  RH  053%=      5-min Rain = 0
KCA1 222018Z 01013KT 19/09 A3008 RMK A01 T01890092  RH  053%=      5-min Rain = 0
KCA1 222019Z 01011KT 19/09 A3008 RMK A01 T01900091  RH  053%=      5-min Rain = 0
KCA1 222020Z 36009KT 19/09 A3008 RMK A01 T01900093  RH  053%=      5-min Rain = 0
KCA1 222021Z 36010G15KT 19/09 A3008 RMK A01 T01920094  RH  053%=      5-min Rain = 0
KCA1 222022Z 36012KT 20/10 A3008 RMK A01 T01960095  RH  052%=      5-min Rain = 0
KCA1 222023Z 00014KT 20/10 A3008 RMK A01 T01980095  RH  051%=      5-min Rain = 0
KCA1 222024Z 00013KT 20/09 A3008 RMK A01 T01980094  RH  051%=      5-min Rain = 0
KCA1 222025Z 35013KT 20/09 A3007 RMK A01 T01970093  RH  051%=      5-min Rain = 0
KCA1 222026Z 35014KT 20/09 A3007 RMK A01 T01960093  RH  051%=      5-min Rain = 0
KCA1 222027Z 00014KT 20/09 A3007 RMK A01 T01950091  RH  051%=      5-min Rain = 0
KCA1 222028Z 01014KT 19/09 A3007 RMK A01 T01930090  RH  051%=      5-min Rain = 0
KCA1 222029Z 35014KT 19/09 A3007 RMK A01 T01910091  RH  052%=      5-min Rain = 0
KCA1 222030Z 34013KT 19/09 A3008 RMK A01 T01900091  RH  052%=      5-min Rain = 0
KCA1 222031Z 36014KT 19/09 A3008 RMK A01 T01900092  RH  053%=      5-min Rain = 0
KCA1 222032Z 00015KT 19/09 A3008 RMK A01 T01900091  RH  053%=      5-min Rain = 0
KCA1 222033Z 36012KT 19/09 A3009 RMK A01 T01900091  RH  053%=      5-min Rain = 0
KCA1 222034Z 01009KT 19/09 A3009 RMK A01 T01890091  RH  053%=      5-min Rain = 0
KCA1 222035Z 00012KT 19/09 A3009 RMK A01 T01900090  RH  052%=      5-min Rain = 0
KCA1 222036Z 36013KT 19/09 A3009 RMK A01 T01920091  RH  052%=      5-min Rain = 0
KCA1 222037Z 00012KT 19/09 A3009 RMK A01 T01920090  RH  051%=      5-min Rain = 0
KCA1 222038Z 01010KT 19/09 A3008 RMK A01 T01910088  RH  051%=      5-min Rain = 0
KCA1 222039Z 35011KT 19/09 A3008 RMK A01 T01900090  RH  052%=      5-min Rain = 0
KCA1 222040Z 35011KT 19/09 A3008 RMK A01 T01900092  RH  053%=      5-min Rain = 0
KCA1 222041Z 35014KT 19/09 A3008 RMK A01 T01930093  RH  052%=      5-min Rain = 0
KCA1 222042Z 00013KT 19/09 A3008 RMK A01 T01940092  RH  051%=      5-min Rain = 0
KCA1 222043Z 36011KT 19/09 A3008 RMK A01 T01940091  RH  051%=      5-min Rain = 0
KCA1 222044Z 01013KT 19/09 A3009 RMK A01 T01930092  RH  052%=      5-min Rain = 0
KCA1 222045Z 02012KT 20/09 A3009 RMK A01 T01950090  RH  051%=      5-min Rain = 0
KCA1 222046Z 02012KT 19/09 A3009 RMK A01 T01940091  RH  051%=      5-min Rain = 0
KCA1 222047Z 01011KT 19/09 A3009 RMK A01 T01940090  RH  051%=      5-min Rain = 0
KCA1 222048Z 01010KT 19/09 A3009 RMK A01 T01940090  RH  051%=      5-min Rain = 0
KCA1 222049Z 36012KT 19/09 A3008 RMK A01 T01940091  RH  051%=      5-min Rain = 0
KCA1 222050Z 34014KT 20/09 A3008 RMK A01 T01950090  RH  051%=      5-min Rain = 0
KCA1 222051Z 35015KT 20/09 A3007 RMK A01 T01950091  RH  051%=      5-min Rain = 0
KCA1 222052Z 00015KT 20/09 A3007 RMK A01 T01960092  RH  051%=      5-min Rain = 0
KCA1 222053Z 01017G22KT 20/09 A3007 RMK A01 T01960090  RH  050%=      5-min Rain = 0
KCA1 222054Z 00017KT 20/09 A3007 RMK A01 T01950089  RH  050%=      5-min Rain = 0
KCA1 222055Z 00015KT 19/09 A3006 RMK A01 T01930088  RH  051%=      5-min Rain = 0
KCA1 222056Z 36018KT 19/09 A3006 RMK A01 T01920088  RH  051%=      5-min Rain = 0
KCA1 222057Z 01016KT 19/09 A3006 RMK A01 T01920088  RH  051%=      5-min Rain = 0
KCA1 222058Z 00015KT 19/09 A3006 RMK A01 T01910088  RH  051%=      5-min Rain = 0
KCA1 222059Z 00013KT 19/09 A3006 RMK A01 T01910087  RH  051%=      5-min Rain = 0
KCA1 222100Z 01012KT 19/09 A3006 RMK A01 T01900089  RH  052%=      5-min Rain = 0
KCA1 222101Z 01013KT 19/09 A3006 RMK A01 T01910087  RH  051%=      5-min Rain = 0
KCA1 222102Z 01016KT 19/09 A3006 RMK A01 T01900088  RH  051%=      5-min Rain = 0
KCA1 222103Z 01015KT 19/09 A3006 RMK A01 T01910086  RH  051%=      5-min Rain = 0
KCA1 222104Z 01016KT 19/09 A3006 RMK A01 T01900085  RH  051%=      5-min Rain = 0
KCA1 222105Z 02016KT 19/09 A3005 RMK A01 T01900087  RH  051%=      5-min Rain = 0
KCA1 222106Z 02018KT 19/09 A3005 RMK A01 T01900087  RH  051%=      5-min Rain = 0
KCA1 222107Z 02016KT 19/09 A3005 RMK A01 T01900087  RH  051%=      5-min Rain = 0
KCA1 222108Z 01016KT 19/09 A3005 RMK A01 T01900087  RH  051%=      5-min Rain = 0
KCA1 222109Z 01017KT 19/09 A3005 RMK A01 T01900088  RH  051%=      5-min Rain = 0
KCA1 222110Z 02016KT 19/09 A3005 RMK A01 T01900086  RH  051%=      5-min Rain = 0
KCA1 222111Z 02015KT 19/09 A3006 RMK A01 T01890086  RH  051%=      5-min Rain = 0
KCA1 222112Z 02016KT 19/09 A3006 RMK A01 T01890087  RH  051%=      5-min Rain = 0
KCA1 222113Z 02015KT 19/09 A3006 RMK A01 T01890087  RH  051%=      5-min Rain = 0
KCA1 222114Z 03013KT 19/09 A3006 RMK A01 T01880087  RH  052%=      5-min Rain = 0
KCA1 222115Z 01013G18KT 19/09 A3006 RMK A01 T01880088  RH  052%=      5-min Rain = 0
KCA1 222116Z 00014KT 19/09 A3006 RMK A01 T01890088  RH  052%=      5-min Rain = 0
KCA1 222117Z 36012KT 19/09 A3006 RMK A01 T01890088  RH  052%=      5-min Rain = 0
KCA1 222118Z 35012KT 19/09 A3006 RMK A01 T01890087  RH  051%=      5-min Rain = 0
KCA1 222119Z 00012KT 19/09 A3007 RMK A01 T01900088  RH  052%=      5-min Rain = 0
KCA1 222120Z 00010KT 19/09 A3007 RMK A01 T01900088  RH  051%=      5-min Rain = 0
KCA1 222121Z 01008KT 19/09 A3008 RMK A01 T01900086  RH  051%=      5-min Rain = 0
KCA1 222122Z 02007KT 19/09 A3009 RMK A01 T01900086  RH  051%=      5-min Rain = 0
KCA1 222123Z 00005KT 19/09 A3009 RMK A01 T01890086  RH  051%=      5-min Rain = 0
KCA1 222124Z 36009KT 19/09 A3009 RMK A01 T01890086  RH  051%=      5-min Rain = 0
KCA1 222125Z 36009KT 19/09 A301 RMK A01 T01890086  RH  051%=      5-min Rain = 0
KCA1 222126Z 35008KT 19/09 A301 RMK A01 T01890086  RH  051%=      5-min Rain = 0
KCA1 222127Z 00009KT 19/09 A3009 RMK A01 T01900085  RH  051%=      5-min Rain = 0
KCA1 222128Z 01010KT 19/08 A3009 RMK A01 T01900084  RH  050%=      5-min Rain = 0
KCA1 222129Z 01011KT 19/08 A3008 RMK A01 T01900084  RH  050%=      5-min Rain = 0
KCA1 222130Z 01010KT 19/09 A3008 RMK A01 T01900085  RH  050%=      5-min Rain = 0
KCA1 222131Z 02010KT 19/09 A3008 RMK A01 T01900086  RH  051%=      5-min Rain = 0
KCA1 222132Z 02011KT 19/09 A3007 RMK A01 T01910086  RH  051%=      5-min Rain = 0
KCA1 222133Z 02011KT 19/09 A3007 RMK A01 T01910087  RH  051%=      5-min Rain = 0
KCA1 222134Z 02010KT 19/09 A3006 RMK A01 T01920088  RH  051%=      5-min Rain = 0
KCA1 222135Z 03013G18KT 19/09 A3005 RMK A01 T01930090  RH  051%=      5-min Rain = 0
KCA1 222136Z 02017KT 19/09 A3005 RMK A01 T01940090  RH  051%=      5-min Rain = 0
KCA1 222137Z 01015KT 19/09 A3005 RMK A01 T01940087  RH  050%=      5-min Rain = 0
KCA1 222138Z 01013KT 19/09 A3005 RMK A01 T01930087  RH  050%=      5-min Rain = 0
KCA1 222139Z 02011KT 19/09 A3006 RMK A01 T01930087  RH  050%=      5-min Rain = 0
KCA1 222140Z 01009KT 19/09 A3006 RMK A01 T01930087  RH  050%=      5-min Rain = 0
KCA1 222141Z 02007KT 19/09 A3007 RMK A01 T01930087  RH  050%=      5-min Rain = 0
KCA1 222142Z 02005KT 19/09 A3008 RMK A01 T01930088  RH  050%=      5-min Rain = 0
KCA1 222143Z 02009KT 19/09 A3008 RMK A01 T01930087  RH  050%=      5-min Rain = 0
KCA1 222144Z 02009KT 19/09 A3007 RMK A01 T01930088  RH  051%=      5-min Rain = 0
KCA1 222145Z 03010KT 19/09 A3007 RMK A01 T01930089  RH  051%=      5-min Rain = 0
KCA1 222146Z 02011KT 19/09 A3006 RMK A01 T01930088  RH  051%=      5-min Rain = 0
KCA1 222147Z 02008KT 19/09 A3006 RMK A01 T01920089  RH  051%=      5-min Rain = 0
KCA1 222148Z 02005KT 19/09 A3006 RMK A01 T01930090  RH  051%=      5-min Rain = 0
KCA1 222149Z 02006KT 19/09 A3007 RMK A01 T01940091  RH  051%=      5-min Rain = 0
KCA1 222150Z 01012KT 20/09 A3007 RMK A01 T01950090  RH  051%=      5-min Rain = 0
KCA1 222151Z 02013KT 19/09 A3007 RMK A01 T01940089  RH  051%=      5-min Rain = 0
KCA1 222152Z 02011KT 19/09 A3006 RMK A01 T01930087  RH  050%=      5-min Rain = 0
KCA1 222153Z 01010KT 19/09 A3006 RMK A01 T01920088  RH  051%=      5-min Rain = 0
KCA1 222154Z 01012KT 19/09 A3006 RMK A01 T01920089  RH  051%=      5-min Rain = 0
KCA1 222155Z 01012KT 19/09 A3006 RMK A01 T01920088  RH  051%=      5-min Rain = 0
KCA1 222156Z 01013KT 19/09 A3006 RMK A01 T01920087  RH  051%=      5-min Rain = 0
KCA1 222157Z 00012KT 19/09 A3006 RMK A01 T01910087  RH  051%=      5-min Rain = 0
KCA1 222158Z 01012KT 19/09 A3006 RMK A01 T01910087  RH  051%=      5-min Rain = 0
KCA1 222159Z 01012KT 19/09 A3006 RMK A01 T01910088  RH  051%=      5-min Rain = 0
KCA1 222200Z 01013KT 19/09 A3006 RMK A01 T01920087  RH  051%=      5-min Rain = 0
KCA1 222201Z 02013KT 19/09 A3006 RMK A01 T01920087  RH  051%=      5-min Rain = 0
KCA1 222202Z 02012KT 19/09 A3005 RMK A01 T01920088  RH  051%=      5-min Rain = 0
KCA1 222203Z 01014KT 19/09 A3005 RMK A01 T01920089  RH  051%=      5-min Rain = 0
KCA1 222204Z 01015KT 19/09 A3005 RMK A01 T01920088  RH  051%=      5-min Rain = 0
KCA1 222205Z 02013KT 19/09 A3005 RMK A01 T01920088  RH  051%=      5-min Rain = 0
KCA1 222206Z 03015KT 19/09 A3005 RMK A01 T01920089  RH  051%=      5-min Rain = 0
KCA1 222207Z 03014KT 19/09 A3004 RMK A01 T01920089  RH  051%=      5-min Rain = 0
KCA1 222208Z 02018KT 19/09 A3004 RMK A01 T01920090  RH  051%=      5-min Rain = 0
KCA1 222209Z 01017KT 19/09 A3003 RMK A01 T01920089  RH  051%=      5-min Rain = 0
KCA1 222210Z 02018KT 19/09 A3003 RMK A01 T01920088  RH  051%=      5-min Rain = 0
KCA1 222211Z 03017KT 19/09 A3003 RMK A01 T01920089  RH  051%=      5-min Rain = 0
KCA1 222212Z 02017KT 19/09 A3003 RMK A01 T01920090  RH  051%=      5-min Rain = 0
KCA1 222213Z 03018G23KT 19/09 A3003 RMK A01 T01920090  RH  052%=      5-min Rain = 0
KCA1 222214Z 03017KT 19/09 A3003 RMK A01 T01920088  RH  051%=      5-min Rain = 0
KCA1 222215Z 02013KT 19/09 A3003 RMK A01 T01920089  RH  051%=      5-min Rain = 0
KCA1 222216Z 02014KT 19/09 A3003 RMK A01 T01920089  RH  051%=      5-min Rain = 0
KCA1 222217Z 01016KT 19/09 A3004 RMK A01 T01930088  RH  051%=      5-min Rain = 0
KCA1 222218Z 01016G21KT 19/09 A3004 RMK A01 T01930087  RH  050%=      5-min Rain = 0
KCA1 222219Z 02014KT 19/09 A3004 RMK A01 T01930088  RH  051%=      5-min Rain = 0
KCA1 222220Z 01012KT 19/09 A3004 RMK A01 T01930088  RH  051%=      5-min Rain = 0
KCA1 222221Z 02015KT 19/09 A3004 RMK A01 T01940088  RH  050%=      5-min Rain = 0
KCA1 222222Z 02010KT 19/09 A3005 RMK A01 T01930089  RH  051%=      5-min Rain = 0
KCA1 222223Z 03010KT 19/09 A3005 RMK A01 T01930089  RH  051%=      5-min Rain = 0
KCA1 222224Z 05007KT 19/09 A3005 RMK A01 T01930090  RH  051%=      5-min Rain = 0
KCA1 222225Z 05014KT 20/09 A3006 RMK A01 T01950090  RH  051%=      5-min Rain = 0
KCA1 222226Z 05015KT 19/09 A3006 RMK A01 T01940087  RH  050%=      5-min Rain = 0
KCA1 222227Z 04013KT 19/09 A3007 RMK A01 T01930087  RH  050%=      5-min Rain = 0
KCA1 222228Z 05010KT 19/09 A3007 RMK A01 T01920087  RH  051%=      5-min Rain = 0
KCA1 222229Z 05011KT 19/09 A3007 RMK A01 T01920088  RH  051%=      5-min Rain = 0
KCA1 222230Z 05010KT 19/09 A3008 RMK A01 T01920088  RH  051%=      5-min Rain = 0
KCA1 222231Z 05009KT 19/09 A3008 RMK A01 T01930087  RH  051%=      5-min Rain = 0
KCA1 222232Z 04007KT 19/09 A3008 RMK A01 T01920087  RH  050%=      5-min Rain = 0
KCA1 222233Z 04006KT 19/09 A3008 RMK A01 T01930089  RH  051%=      5-min Rain = 0
KCA1 222234Z 04005KT 19/09 A3008 RMK A01 T01930090  RH  051%=      5-min Rain = 0
KCA1 222235Z 02005KT 20/09 A3008 RMK A01 T01950091  RH  051%=      5-min Rain = 0
KCA1 222236Z 01009KT 20/09 A3009 RMK A01 T01960091  RH  051%=      5-min Rain = 0
KCA1 222237Z 02009KT 20/09 A3009 RMK A01 T01950090  RH  051%=      5-min Rain = 0
KCA1 222238Z 02008KT 20/09 A3009 RMK A01 T01950091  RH  051%=      5-min Rain = 0
KCA1 222239Z 02007KT 20/09 A3009 RMK A01 T01950090  RH  051%=      5-min Rain = 0
KCA1 222240Z 02006KT 19/09 A3009 RMK A01 T01940089  RH  050%=      5-min Rain = 0
KCA1 222241Z 03004KT 19/09 A3009 RMK A01 T01930089  RH  051%=      5-min Rain = 0
KCA1 222242Z 03004KT 19/09 A3009 RMK A01 T01930090  RH  051%=      5-min Rain = 0
KCA1 222243Z 02005KT 19/09 A3009 RMK A01 T01930089  RH  051%=      5-min Rain = 0
KCA1 222244Z 01006KT 19/09 A3008 RMK A01 T01930091  RH  052%=      5-min Rain = 0
KCA1 222245Z 03007KT 19/09 A3008 RMK A01 T01930092  RH  052%=      5-min Rain = 0
KCA1 222246Z 04010KT 19/09 A3008 RMK A01 T01940092  RH  052%=      5-min Rain = 0
KCA1 222247Z 04011KT 19/09 A3008 RMK A01 T01940090  RH  051%=      5-min Rain = 0
KCA1 222248Z 05007KT 19/09 A3008 RMK A01 T01930089  RH  051%=      5-min Rain = 0
KCA1 222249Z 05006KT 19/09 A3008 RMK A01 T01920089  RH  051%=      5-min Rain = 0
KCA1 222250Z 04007KT 19/09 A3009 RMK A01 T01920089  RH  051%=      5-min Rain = 0
KCA1 222251Z 05009KT 19/09 A3009 RMK A01 T01920090  RH  052%=      5-min Rain = 0
KCA1 222252Z 05007KT 19/09 A3009 RMK A01 T01910089  RH  051%=      5-min Rain = 0
KCA1 222253Z 06006KT 19/09 A3009 RMK A01 T01910089  RH  052%=      5-min Rain = 0
KCA1 222254Z 06007KT 19/09 A3009 RMK A01 T01910090  RH  052%=      5-min Rain = 0
KCA1 222255Z 05006KT 19/09 A3009 RMK A01 T01910090  RH  052%=      5-min Rain = 0
KCA1 222256Z 07006KT 19/09 A3009 RMK A01 T01910091  RH  052%=      5-min Rain = 0
KCA1 222257Z 06005KT 19/09 A3009 RMK A01 T01910091  RH  052%=      5-min Rain = 0
KCA1 222258Z 05005KT 19/09 A3009 RMK A01 T01910091  RH  052%=      5-min Rain = 0
KCA1 222259Z 05005KT 19/09 A3009 RMK A01 T01900090  RH  052%=      5-min Rain = 0
KCA1 222300Z 05005KT 19/09 A3009 RMK A01 T01900090  RH  052%=      5-min Rain = 0
KCA1 222301Z 04005KT 19/09 A3009 RMK A01 T01900090  RH  052%=      5-min Rain = 0
KCA1 222302Z 04005KT 19/09 A3009 RMK A01 T01900091  RH  053%=      5-min Rain = 0
KCA1 222303Z 03004KT 19/09 A3009 RMK A01 T01890090  RH  053%=      5-min Rain = 0
KCA1 222304Z 02004KT 19/09 A3009 RMK A01 T01890091  RH  053%=      5-min Rain = 0
KCA1 222305Z 02004KT 19/09 A3009 RMK A01 T01890092  RH  053%=      5-min Rain = 0
KCA1 222306Z 02006KT 19/09 A3009 RMK A01 T01890091  RH  053%=      5-min Rain = 0
KCA1 222307Z 01004KT 19/09 A3009 RMK A01 T01880091  RH  053%=      5-min Rain = 0
KCA1 222308Z 02004KT 19/09 A3009 RMK A01 T01880091  RH  053%=      5-min Rain = 0
KCA1 222309Z 01004KT 19/09 A3009 RMK A01 T01880091  RH  053%=      5-min Rain = 0
KCA1 222310Z 02005KT 19/09 A3009 RMK A01 T01880092  RH  054%=      5-min Rain = 0
KCA1 222311Z 02007KT 19/09 A3009 RMK A01 T01880092  RH  054%=      5-min Rain = 0
KCA1 222312Z 02007KT 19/09 A3009 RMK A01 T01870091  RH  054%=      5-min Rain = 0
KCA1 222313Z 02007KT 19/09 A3008 RMK A01 T01870092  RH  054%=      5-min Rain = 0
KCA1 222314Z 01008KT 19/09 A3008 RMK A01 T01870092  RH  054%=      5-min Rain = 0
KCA1 222315Z 01007KT 19/09 A3008 RMK A01 T01870091  RH  054%=      5-min Rain = 0
KCA1 222316Z 01006KT 19/09 A3009 RMK A01 T01870091  RH  054%=      5-min Rain = 0
KCA1 222317Z 01006KT 19/09 A3009 RMK A01 T01870092  RH  054%=      5-min Rain = 0
KCA1 222318Z 00005KT 19/09 A3009 RMK A01 T01860092  RH  054%=      5-min Rain = 0
KCA1 222319Z 00006KT 19/09 A3009 RMK A01 T01860093  RH  054%=      5-min Rain = 0
KCA1 222320Z 00007KT 19/09 A3009 RMK A01 T01860092  RH  054%=      5-min Rain = 0
KCA1 222321Z 35008KT 19/09 A3009 RMK A01 T01850093  RH  055%=      5-min Rain = 0
KCA1 222322Z 00010KT 19/09 A3008 RMK A01 T01850093  RH  055%=      5-min Rain = 0
KCA1 222323Z 00011KT 19/09 A3008 RMK A01 T01850093  RH  055%=      5-min Rain = 0
KCA1 222324Z 35010KT 18/09 A3008 RMK A01 T01840093  RH  055%=      5-min Rain = 0
KCA1 222325Z 35008KT 18/09 A3008 RMK A01 T01840094  RH  056%=      5-min Rain = 0
KCA1 222326Z 35008KT 18/09 A3009 RMK A01 T01840094  RH  056%=      5-min Rain = 0
KCA1 222327Z 34006KT 18/09 A3009 RMK A01 T01830093  RH  055%=      5-min Rain = 0
KCA1 222328Z 34005KT 18/09 A3009 RMK A01 T01830092  RH  055%=      5-min Rain = 0
KCA1 222329Z 34006KT 18/09 A3009 RMK A01 T01840094  RH  056%=      5-min Rain = 0
KCA1 222330Z 00006KT 18/09 A3009 RMK A01 T01830093  RH  056%=      5-min Rain = 0
KCA1 222331Z 01008KT 18/09 A3008 RMK A01 T01830094  RH  056%=      5-min Rain = 0
KCA1 222332Z 02008KT 18/09 A3008 RMK A01 T01830094  RH  056%=      5-min Rain = 0
KCA1 222333Z 02009KT 18/09 A3008 RMK A01 T01830094  RH  056%=      5-min Rain = 0
KCA1 222334Z 02009KT 18/09 A3008 RMK A01 T01830094  RH  056%=      5-min Rain = 0
KCA1 222335Z 02009KT 18/09 A3008 RMK A01 T01820094  RH  056%=      5-min Rain = 0
KCA1 222336Z 01008KT 18/10 A3008 RMK A01 T01820095  RH  057%=      5-min Rain = 0
KCA1 222337Z 01008KT 18/10 A3008 RMK A01 T01820096  RH  057%=      5-min Rain = 0
KCA1 222338Z 01008KT 18/10 A3008 RMK A01 T01820096  RH  057%=      5-min Rain = 0
KCA1 222339Z 02007KT 18/10 A3008 RMK A01 T01810096  RH  057%=      5-min Rain = 0
KCA1 222340Z 02008KT 18/10 A3008 RMK A01 T01810096  RH  058%=      5-min Rain = 0
KCA1 222341Z 02007KT 18/10 A3008 RMK A01 T01800096  RH  058%=      5-min Rain = 0
KCA1 222342Z 03007KT 18/10 A3008 RMK A01 T01800096  RH  058%=      5-min Rain = 0
KCA1 222343Z 03008KT 18/10 A3008 RMK A01 T01800096  RH  058%=      5-min Rain = 0
KCA1 222344Z 03007KT 18/10 A3007 RMK A01 T01790096  RH  058%=      5-min Rain = 0
KCA1 222345Z 03008KT 18/10 A3007 RMK A01 T01790096  RH  058%=      5-min Rain = 0
KCA1 222346Z 03008KT 18/10 A3007 RMK A01 T01790096  RH  058%=      5-min Rain = 0
KCA1 222347Z 03008KT 18/10 A3007 RMK A01 T01790096  RH  058%=      5-min Rain = 0
KCA1 222348Z 03008KT 18/10 A3007 RMK A01 T01780097  RH  059%=      5-min Rain = 0
KCA1 222349Z 04008KT 18/10 A3007 RMK A01 T01780098  RH  059%=      5-min Rain = 0
KCA1 222350Z 04009KT 18/10 A3007 RMK A01 T01780097  RH  059%=      5-min Rain = 0
KCA1 222351Z 04010KT 18/10 A3007 RMK A01 T01770098  RH  059%=      5-min Rain = 0
KCA1 222352Z 04009KT 18/10 A3007 RMK A01 T01770098  RH  060%=      5-min Rain = 0
KCA1 222353Z 04010KT 18/10 A3007 RMK A01 T01770099  RH  060%=      5-min Rain = 0
KCA1 222354Z 04009KT 18/10 A3007 RMK A01 T01770098  RH  060%=      5-min Rain = 0
KCA1 222355Z 04007KT 18/10 A3007 RMK A01 T01770099  RH  060%=      5-min Rain = 0
KCA1 222356Z 03008KT 18/10 A3007 RMK A01 T01760100  RH  061%=      5-min Rain = 0
KCA1 222357Z 03008KT 18/10 A3007 RMK A01 T01760100  RH  061%=      5-min Rain = 0
KCA1 222358Z 03007KT 18/10 A3007 RMK A01 T01750102  RH  062%=      5-min Rain = 0
KCA1 222359Z 02007KT 17/10 A3007 RMK A01 T01740104  RH  063%=      5-min Rain = 0
KCA1 230000Z 01006KT 17/11 A3007 RMK A01 T01720105  RH  064%=      5-min Rain = 0
KCA1 230001Z 01006KT 17/11 A3007 RMK A01 T01710106  RH  065%=      5-min Rain = 0
KCA1 230002Z 01007KT 17/11 A3007 RMK A01 T01700108  RH  067%=      5-min Rain = 0
KCA1 230003Z 00007KT 17/11 A3007 RMK A01 T01680109  RH  068%=      5-min Rain = 0
KCA1 230004Z 01007KT 17/11 A3007 RMK A01 T01670110  RH  069%=      5-min Rain = 0
KCA1 230005Z 01008KT 17/11 A3007 RMK A01 T01650111  RH  070%=      5-min Rain = 0
KCA1 230006Z 00008KT 16/11 A3007 RMK A01 T01640111  RH  071%=      5-min Rain = 0
KCA1 230007Z 00007KT 16/11 A3007 RMK A01 T01640112  RH  071%=      5-min Rain = 0
KCA1 230008Z 00007KT 16/11 A3007 RMK A01 T01630113  RH  072%=      5-min Rain = 0
KCA1 230009Z 00007KT 16/11 A3007 RMK A01 T01620113  RH  073%=      5-min Rain = 0
KCA1 230010Z 00007KT 16/11 A3007 RMK A01 T01620113  RH  073%=      5-min Rain = 0
KCA1 230011Z 00007KT 16/11 A3007 RMK A01 T01620114  RH  074%=      5-min Rain = 0
KCA1 230012Z 00007KT 16/12 A3007 RMK A01 T01610116  RH  075%=      5-min Rain = 0
KCA1 230013Z 00007KT 16/12 A3007 RMK A01 T01590117  RH  076%=      5-min Rain = 0
KCA1 230014Z 00008KT 16/12 A3007 RMK A01 T01590118  RH  077%=      5-min Rain = 0
KCA1 230015Z 36009KT 16/12 A3006 RMK A01 T01570119  RH  078%=      5-min Rain = 0
KCA1 230016Z 00010KT 16/12 A3006 RMK A01 T01560119  RH  078%=      5-min Rain = 0
KCA1 230017Z 00011KT 16/12 A3006 RMK A01 T01550118  RH  079%=      5-min Rain = 0
KCA1 230018Z 00012KT 16/12 A3006 RMK A01 T01550118  RH  078%=      5-min Rain = 0
KCA1 230019Z 00011KT 16/12 A3005 RMK A01 T01550117  RH  078%=      5-min Rain = 0
KCA1 230020Z 36012KT 16/12 A3005 RMK A01 T01550117  RH  078%=      5-min Rain = 0
KCA1 230021Z 36012KT 16/12 A3005 RMK A01 T01550118  RH  079%=      5-min Rain = 0
KCA1 230022Z 00012KT 15/12 A3005 RMK A01 T01540119  RH  080%=      5-min Rain = 0
KCA1 230023Z 00012KT 15/12 A3005 RMK A01 T01530119  RH  080%=      5-min Rain = 0
KCA1 230024Z 00013KT 15/12 A3005 RMK A01 T01530118  RH  080%=      5-min Rain = 0
KCA1 230025Z 00012KT 15/12 A3005 RMK A01 T01530118  RH  080%=      5-min Rain = 0
KCA1 230026Z 00011KT 15/12 A3005 RMK A01 T01520119  RH  081%=      5-min Rain = 0
KCA1 230027Z 00010KT 15/12 A3005 RMK A01 T01520120  RH  081%=      5-min Rain = 0
KCA1 230028Z 00010KT 15/12 A3005 RMK A01 T01510120  RH  082%=      5-min Rain = 0
KCA1 230029Z 00010KT 15/12 A3005 RMK A01 T01500121  RH  083%=      5-min Rain = 0
KCA1 230030Z 00011KT 15/12 A3005 RMK A01 T01500121  RH  083%=      5-min Rain = 0
KCA1 230031Z 00010KT 15/12 A3005 RMK A01 T01490121  RH  083%=      5-min Rain = 0
KCA1 230032Z 01010KT 15/12 A3005 RMK A01 T01490122  RH  084%=      5-min Rain = 0
KCA1 230033Z 01011KT 15/12 A3005 RMK A01 T01490122  RH  084%=      5-min Rain = 0
KCA1 230034Z 01010KT 15/12 A3005 RMK A01 T01490121  RH  083%=      5-min Rain = 0
KCA1 230035Z 00011KT 15/12 A3005 RMK A01 T01490121  RH  083%=      5-min Rain = 0.01
KCA1 230036Z 00010KT 15/12 A3005 RMK A01 T01490120  RH  083%=      5-min Rain = 0
KCA1 230037Z 00010KT 15/12 A3005 RMK A01 T01490121  RH  083%=      5-min Rain = 0
KCA1 230038Z 00011KT 15/12 A3005 RMK A01 T01490120  RH  083%=      5-min Rain = 0
KCA1 230039Z 00011KT 15/12 A3005 RMK A01 T01480120  RH  083%=      5-min Rain = 0
KCA1 230040Z 00012KT 15/12 A3005 RMK A01 T01480119  RH  083%=      5-min Rain = 0
KCA1 230041Z 00011KT 15/12 A3005 RMK A01 T01480119  RH  082%=      5-min Rain = 0
KCA1 230042Z 00012KT 15/12 A3005 RMK A01 T01490119  RH  083%=      5-min Rain = 0
KCA1 230043Z 01012KT 15/12 A3005 RMK A01 T01490119  RH  082%=      5-min Rain = 0
KCA1 230044Z 01012KT 15/12 A3004 RMK A01 T01490118  RH  082%=      5-min Rain = 0
KCA1 230045Z 00011KT 15/12 A3004 RMK A01 T01490120  RH  083%=      5-min Rain = 0
KCA1 230046Z 00012KT 15/12 A3004 RMK A01 T01480120  RH  084%=      5-min Rain = 0
KCA1 230047Z 00012KT 15/12 A3004 RMK A01 T01470120  RH  083%=      5-min Rain = 0
KCA1 230048Z 00011KT 15/12 A3004 RMK A01 T01470119  RH  083%=      5-min Rain = 0
KCA1 230049Z 00012KT 15/12 A3004 RMK A01 T01470119  RH  083%=      5-min Rain = 0
KCA1 230050Z 00013KT 15/12 A3004 RMK A01 T01470118  RH  082%=      5-min Rain = 0
KCA1 230051Z 00013KT 15/12 A3004 RMK A01 T01470118  RH  082%=      5-min Rain = 0
KCA1 230052Z 00013KT 15/12 A3004 RMK A01 T01470117  RH  082%=      5-min Rain = 0
KCA1 230053Z 01013KT 15/12 A3004 RMK A01 T01470117  RH  082%=      5-min Rain = 0
KCA1 230054Z 01014KT 15/12 A3004 RMK A01 T01470117  RH  082%=      5-min Rain = 0
KCA1 230055Z 00013KT 15/12 A3004 RMK A01 T01470116  RH  081%=      5-min Rain = 0
KCA1 230056Z 00013KT 15/12 A3004 RMK A01 T01480117  RH  082%=      5-min Rain = 0
KCA1 230057Z 01013KT 15/12 A3004 RMK A01 T01480116  RH  081%=      5-min Rain = 0
KCA1 230058Z 01014KT 15/12 A3004 RMK A01 T01480116  RH  082%=      5-min Rain = 0
KCA1 230059Z 01013KT 15/12 A3004 RMK A01 T01480116  RH  081%=      5-min Rain = 0
KCA1 230100Z 01013KT 15/12 A3004 RMK A01 T01480116  RH  081%=      5-min Rain = 0
KCA1 230101Z 01012KT 15/12 A3004 RMK A01 T01480116  RH  081%=      5-min Rain = 0
KCA1 230102Z 01013KT 15/12 A3004 RMK A01 T01480116  RH  081%=      5-min Rain = 0
KCA1 230103Z 01013KT 15/12 A3004 RMK A01 T01490115  RH  080%=      5-min Rain = 0
KCA1 230104Z 01012KT 15/12 A3004 RMK A01 T01490115  RH  080%=      5-min Rain = 0
KCA1 230105Z 01012KT 15/12 A3004 RMK A01 T01490115  RH  080%=      5-min Rain = 0
KCA1 230106Z 01012KT 15/12 A3004 RMK A01 T01490115  RH  080%=      5-min Rain = 0
KCA1 230107Z 02011KT 15/12 A3004 RMK A01 T01490115  RH  080%=      5-min Rain = 0
KCA1 230108Z 02011KT 15/12 A3004 RMK A01 T01490115  RH  080%=      5-min Rain = 0
KCA1 230109Z 02011KT 15/12 A3004 RMK A01 T01500115  RH  080%=      5-min Rain = 0
KCA1 230110Z 02012KT 15/12 A3004 RMK A01 T01490116  RH  080%=      5-min Rain = 0
KCA1 230111Z 03012KT 15/12 A3004 RMK A01 T01500115  RH  080%=      5-min Rain = 0
KCA1 230112Z 03012KT 15/11 A3004 RMK A01 T01500114  RH  079%=      5-min Rain = 0
KCA1 230113Z 03012KT 15/12 A3004 RMK A01 T01500115  RH  079%=      5-min Rain = 0
KCA1 230114Z 03013KT 15/12 A3004 RMK A01 T01500115  RH  080%=      5-min Rain = 0
KCA1 230115Z 03013KT 15/12 A3004 RMK A01 T01500115  RH  080%=      5-min Rain = 0
KCA1 230116Z 03012KT 15/12 A3004 RMK A01 T01500115  RH  080%=      5-min Rain = 0
KCA1 230117Z 03012KT 15/12 A3004 RMK A01 T01500115  RH  080%=      5-min Rain = 0
KCA1 230118Z 03012KT 15/12 A3004 RMK A01 T01500115  RH  079%=      5-min Rain = 0
KCA1 230119Z 03012KT 15/11 A3004 RMK A01 T01500114  RH  079%=      5-min Rain = 0
KCA1 230120Z 03012KT 15/12 A3004 RMK A01 T01500115  RH  080%=      5-min Rain = 0
KCA1 230121Z 03011KT 15/12 A3004 RMK A01 T01500115  RH  079%=      5-min Rain = 0
KCA1 230122Z 03011KT 15/12 A3004 RMK A01 T01500115  RH  080%=      5-min Rain = 0
KCA1 230123Z 03011KT 15/11 A3004 RMK A01 T01490114  RH  079%=      5-min Rain = 0
KCA1 230124Z 03010KT 15/12 A3004 RMK A01 T01490115  RH  080%=      5-min Rain = 0
KCA1 230125Z 03011KT 15/12 A3004 RMK A01 T01490115  RH  080%=      5-min Rain = 0
KCA1 230126Z 04010KT 15/12 A3004 RMK A01 T01490115  RH  080%=      5-min Rain = 0
KCA1 230127Z 04011KT 15/12 A3004 RMK A01 T01490115  RH  080%=      5-min Rain = 0
KCA1 230128Z 04011KT 15/12 A3004 RMK A01 T01490115  RH  080%=      5-min Rain = 0
KCA1 230129Z 04010KT 15/12 A3004 RMK A01 T01490115  RH  080%=      5-min Rain = 0
KCA1 230130Z 04011KT 15/12 A3004 RMK A01 T01490115  RH  080%=      5-min Rain = 0
KCA1 230131Z 04009KT 15/12 A3004 RMK A01 T01490115  RH  080%=      5-min Rain = 0
KCA1 230132Z 04009KT 15/12 A3004 RMK A01 T01490116  RH  080%=      5-min Rain = 0
KCA1 230133Z 04009KT 15/12 A3005 RMK A01 T01490116  RH  081%=      5-min Rain = 0
KCA1 230134Z 04008KT 15/12 A3005 RMK A01 T01490115  RH  080%=      5-min Rain = 0
KCA1 230135Z 04009KT 15/12 A3005 RMK A01 T01490115  RH  080%=      5-min Rain = 0
KCA1 230136Z 04008KT 15/12 A3005 RMK A01 T01490115  RH  080%=      5-min Rain = 0
KCA1 230137Z 04008KT 15/12 A3005 RMK A01 T01490115  RH  080%=      5-min Rain = 0
KCA1 230138Z 04009KT 15/12 A3005 RMK A01 T01490116  RH  080%=      5-min Rain = 0
KCA1 230139Z 03009KT 15/12 A3005 RMK A01 T01490115  RH  080%=      5-min Rain = 0
KCA1 230140Z 03009KT 15/12 A3005 RMK A01 T01490117  RH  081%=      5-min Rain = 0
KCA1 230141Z 03009KT 15/12 A3005 RMK A01 T01490116  RH  081%=      5-min Rain = 0
KCA1 230142Z 03009KT 15/12 A3005 RMK A01 T01490117  RH  081%=      5-min Rain = 0
KCA1 230143Z 03008KT 15/12 A3005 RMK A01 T01490117  RH  082%=      5-min Rain = 0
KCA1 230144Z 03009KT 15/12 A3005 RMK A01 T01480117  RH  082%=      5-min Rain = 0
KCA1 230145Z 03008KT 15/12 A3005 RMK A01 T01480116  RH  082%=      5-min Rain = 0
KCA1 230146Z 03007KT 15/12 A3005 RMK A01 T01470118  RH  082%=      5-min Rain = 0
KCA1 230147Z 03008KT 15/12 A3005 RMK A01 T01470118  RH  083%=      5-min Rain = 0
KCA1 230148Z 03008KT 15/12 A3005 RMK A01 T01470117  RH  082%=      5-min Rain = 0
KCA1 230149Z 04007KT 15/12 A3005 RMK A01 T01470118  RH  083%=      5-min Rain = 0
KCA1 230150Z 04007KT 15/12 A3005 RMK A01 T01470118  RH  083%=      5-min Rain = 0
KCA1 230151Z 03006KT 15/12 A3005 RMK A01 T01460119  RH  084%=      5-min Rain = 0
KCA1 230152Z 04006KT 15/12 A3006 RMK A01 T01460118  RH  083%=      5-min Rain = 0
KCA1 230153Z 03005KT 15/12 A3006 RMK A01 T01460118  RH  083%=      5-min Rain = 0
KCA1 230154Z 04005KT 15/12 A3006 RMK A01 T01460118  RH  084%=      5-min Rain = 0
KCA1 230155Z 04004KT 15/12 A3006 RMK A01 T01460119  RH  084%=      5-min Rain = 0
KCA1 230156Z 03004KT 15/12 A3006 RMK A01 T01460120  RH  084%=      5-min Rain = 0
KCA1 230157Z 04003KT 15/12 A3006 RMK A01 T01450120  RH  085%=      5-min Rain = 0
KCA1 230158Z 03003KT 15/12 A3006 RMK A01 T01450120  RH  085%=      5-min Rain = 0
KCA1 230159Z 04003KT 15/12 A3007 RMK A01 T01450121  RH  085%=      5-min Rain = 0
KCA1 230200Z 04003KT 15/12 A3007 RMK A01 T01450119  RH  085%=      5-min Rain = 0
KCA1 230201Z 04003KT 15/12 A3007 RMK A01 T01450119  RH  085%=      5-min Rain = 0
KCA1 230202Z 05003KT 14/12 A3007 RMK A01 T01440120  RH  085%=      5-min Rain = 0
KCA1 230203Z 05003KT 15/12 A3007 RMK A01 T01450119  RH  085%=      5-min Rain = 0
KCA1 230204Z 05003KT 14/12 A3007 RMK A01 T01440119  RH  085%=      5-min Rain = 0
KCA1 230205Z 06003KT 15/12 A3007 RMK A01 T01450120  RH  085%=      5-min Rain = 0
KCA1 230206Z 05004KT 14/12 A3007 RMK A01 T01440119  RH  085%=      5-min Rain = 0
KCA1 230207Z 06004KT 15/12 A3007 RMK A01 T01450120  RH  085%=      5-min Rain = 0
KCA1 230208Z 06003KT 15/12 A3007 RMK A01 T01450121  RH  085%=      5-min Rain = 0
KCA1 230209Z 06004KT 15/12 A3007 RMK A01 T01450121  RH  085%=      5-min Rain = 0
KCA1 230210Z 05004KT 15/12 A3007 RMK A01 T01450120  RH  085%=      5-min Rain = 0
KCA1 230211Z 05004KT 15/12 A3007 RMK A01 T01450121  RH  085%=      5-min Rain = 0
KCA1 230212Z 05004KT 15/12 A3008 RMK A01 T01450120  RH  085%=      5-min Rain = 0
KCA1 230213Z 06004KT 15/12 A3008 RMK A01 T01450120  RH  085%=      5-min Rain = 0
KCA1 230214Z 05004KT 15/12 A3008 RMK A01 T01450120  RH  085%=      5-min Rain = 0
KCA1 230215Z 05004KT 15/12 A3008 RMK A01 T01450120  RH  085%=      5-min Rain = 0
KCA1 230216Z 05004KT 15/12 A3008 RMK A01 T01450120  RH  085%=      5-min Rain = 0
KCA1 230217Z 04004KT 15/12 A3008 RMK A01 T01450120  RH  085%=      5-min Rain = 0
KCA1 230218Z 04005KT 15/12 A3008 RMK A01 T01450121  RH  085%=      5-min Rain = 0
KCA1 230219Z 03004KT 15/12 A3008 RMK A01 T01450121  RH  085%=      5-min Rain = 0
KCA1 230220Z 03004KT 15/12 A3008 RMK A01 T01450121  RH  086%=      5-min Rain = 0
KCA1 230221Z 04005KT 15/12 A3008 RMK A01 T01450119  RH  084%=      5-min Rain = 0
KCA1 230222Z 03005KT 15/12 A3008 RMK A01 T01460119  RH  084%=      5-min Rain = 0
KCA1 230223Z 03005KT 15/12 A3008 RMK A01 T01460119  RH  084%=      5-min Rain = 0
KCA1 230224Z 03005KT 15/12 A3008 RMK A01 T01470119  RH  084%=      5-min Rain = 0
KCA1 230225Z 02006KT 15/12 A3008 RMK A01 T01470120  RH  084%=      5-min Rain = 0
KCA1 230226Z 02007KT 15/12 A3008 RMK A01 T01470119  RH  083%=      5-min Rain = 0
KCA1 230227Z 02006KT 15/12 A3008 RMK A01 T01470118  RH  083%=      5-min Rain = 0
KCA1 230228Z 01006KT 15/12 A3008 RMK A01 T01480120  RH  083%=      5-min Rain = 0
KCA1 230229Z 02005KT 15/12 A3008 RMK A01 T01480118  RH  083%=      5-min Rain = 0
KCA1 230230Z 02006KT 15/12 A3008 RMK A01 T01480119  RH  082%=      5-min Rain = 0
KCA1 230231Z 01005KT 15/12 A3008 RMK A01 T01480119  RH  083%=      5-min Rain = 0
KCA1 230232Z 01005KT 15/12 A3008 RMK A01 T01480119  RH  083%=      5-min Rain = 0
KCA1 230233Z 01004KT 15/12 A3009 RMK A01 T01480119  RH  083%=      5-min Rain = 0
KCA1 230234Z 01004KT 15/12 A3009 RMK A01 T01480120  RH  084%=      5-min Rain = 0
KCA1 230235Z 35003KT 15/12 A3009 RMK A01 T01470122  RH  085%=      5-min Rain = 0
KCA1 230236Z 35003KT 15/12 A3009 RMK A01 T01460122  RH  085%=      5-min Rain = 0
KCA1 230237Z 35003KT 15/12 A3009 RMK A01 T01460123  RH  086%=      5-min Rain = 0.01
KCA1 230238Z 34003KT 15/12 A3009 RMK A01 T01450122  RH  086%=      5-min Rain = 0
KCA1 230239Z 34003KT 15/12 A3009 RMK A01 T01450123  RH  087%=      5-min Rain = 0
KCA1 230240Z 32002KT 14/12 A3009 RMK A01 T01440124  RH  088%=      5-min Rain = 0
KCA1 230241Z 33003KT 14/13 A3009 RMK A01 T01430125  RH  089%=      5-min Rain = 0
KCA1 230242Z 33002KT 14/13 A3009 RMK A01 T01430125  RH  089%=      5-min Rain = 0
KCA1 230243Z 30002KT 14/13 A3009 RMK A01 T01420125  RH  089%=      5-min Rain = 0
KCA1 230244Z 30003KT 14/13 A3009 RMK A01 T01420125  RH  090%=      5-min Rain = 0
KCA1 230245Z 29003KT 14/13 A3009 RMK A01 T01410125  RH  090%=      5-min Rain = 0
KCA1 230246Z 28003KT 14/12 A3009 RMK A01 T01410124  RH  090%=      5-min Rain = 0
KCA1 230247Z 27002KT 14/13 A301 RMK A01 T01410125  RH  090%=      5-min Rain = 0
KCA1 230248Z 27002KT 14/13 A301 RMK A01 T01410126  RH  091%=      5-min Rain = 0
KCA1 230249Z 28003KT 14/13 A301 RMK A01 T01400126  RH  091%=      5-min Rain = 0
KCA1 230250Z 28003KT 14/13 A301 RMK A01 T01400126  RH  091%=      5-min Rain = 0
KCA1 230251Z 29003KT 14/13 A301 RMK A01 T01400125  RH  091%=      5-min Rain = 0
KCA1 230252Z 29003KT 14/13 A301 RMK A01 T01400126  RH  091%=      5-min Rain = 0
KCA1 230253Z 28003KT 14/13 A301 RMK A01 T01400127  RH  092%=      5-min Rain = 0
KCA1 230254Z 29003KT 14/13 A301 RMK A01 T01390126  RH  092%=      5-min Rain = 0
KCA1 230255Z 28004KT 14/13 A301 RMK A01 T01400126  RH  092%=      5-min Rain = 0
KCA1 230256Z 28004KT 14/13 A301 RMK A01 T01400126  RH  092%=      5-min Rain = 0
KCA1 230257Z 28005KT 14/13 A301 RMK A01 T01390126  RH  092%=      5-min Rain = 0
KCA1 230258Z 29005KT 14/13 A301 RMK A01 T01400127  RH  092%=      5-min Rain = 0
KCA1 230259Z 30004KT 14/13 A301 RMK A01 T01390127  RH  092%=      5-min Rain = 0
KCA1 230300Z 31004KT 14/13 A301 RMK A01 T01390127  RH  093%=      5-min Rain = 0
KCA1 230301Z 31004KT 14/13 A301 RMK A01 T01380128  RH  093%=      5-min Rain = 0
KCA1 230302Z 31004KT 14/13 A301 RMK A01 T01380128  RH  093%=      5-min Rain = 0
KCA1 230303Z 31004KT 14/13 A301 RMK A01 T01380128  RH  093%=      5-min Rain = 0
KCA1 230304Z 32003KT 14/13 A301 RMK A01 T01380128  RH  093%=      5-min Rain = 0
KCA1 230305Z 32003KT 14/13 A301 RMK A01 T01380128  RH  094%=      5-min Rain = 0
KCA1 230306Z 31003KT 14/13 A301 RMK A01 T01380128  RH  094%=      5-min Rain = 0
KCA1 230307Z 31004KT 14/13 A301 RMK A01 T01380128  RH  094%=      5-min Rain = 0
KCA1 230308Z 30004KT 14/13 A301 RMK A01 T01370128  RH  094%=      5-min Rain = 0
KCA1 230309Z 30004KT 14/13 A301 RMK A01 T01380128  RH  094%=      5-min Rain = 0
KCA1 230310Z 30004KT 14/13 A301 RMK A01 T01370128  RH  094%=      5-min Rain = 0.01
KCA1 230311Z 30004KT 14/13 A301 RMK A01 T01370128  RH  094%=      5-min Rain = 0
KCA1 230312Z 30005KT 14/13 A301 RMK A01 T01370128  RH  094%=      5-min Rain = 0
KCA1 230313Z 31004KT 14/13 A301 RMK A01 T01370128  RH  094%=      5-min Rain = 0
KCA1 230314Z 32004KT 14/13 A301 RMK A01 T01370128  RH  094%=      5-min Rain = 0
KCA1 230315Z 32005KT 14/13 A301 RMK A01 T01370129  RH  095%=      5-min Rain = 0
KCA1 230316Z 32005KT 14/13 A301 RMK A01 T01370129  RH  095%=      5-min Rain = 0
KCA1 230317Z 32005KT 14/13 A301 RMK A01 T01370129  RH  095%=      5-min Rain = 0
KCA1 230318Z 33004KT 14/13 A301 RMK A01 T01370129  RH  095%=      5-min Rain = 0
KCA1 230319Z 33005KT 14/13 A301 RMK A01 T01370129  RH  095%=      5-min Rain = 0
KCA1 230320Z 33005KT 14/13 A301 RMK A01 T01370130  RH  096%=      5-min Rain = 0
KCA1 230321Z 33005KT 14/13 A301 RMK A01 T01360130  RH  096%=      5-min Rain = 0
KCA1 230322Z 32005KT 14/13 A301 RMK A01 T01360130  RH  096%=      5-min Rain = 0
KCA1 230323Z 32005KT 14/13 A301 RMK A01 T01360129  RH  096%=      5-min Rain = 0
KCA1 230324Z 33005KT 14/13 A301 RMK A01 T01360130  RH  096%=      5-min Rain = 0
KCA1 230325Z 33005KT 14/13 A3009 RMK A01 T01360130  RH  096%=      5-min Rain = 0
KCA1 230326Z 33006KT 14/13 A3009 RMK A01 T01360130  RH  096%=      5-min Rain = 0.01
KCA1 230327Z 33006KT 14/13 A3009 RMK A01 T01360131  RH  097%=      5-min Rain = 0
KCA1 230328Z 33006KT 14/13 A3009 RMK A01 T01360131  RH  097%=      5-min Rain = 0
KCA1 230329Z 33006KT 14/13 A3009 RMK A01 T01350130  RH  097%=      5-min Rain = 0
KCA1 230330Z 34006KT 14/13 A3009 RMK A01 T01350131  RH  097%=      5-min Rain = 0
KCA1 230331Z 34006KT 14/13 A3009 RMK A01 T01350131  RH  097%=      5-min Rain = 0
KCA1 230332Z 34006KT 14/13 A3009 RMK A01 T01350131  RH  097%=      5-min Rain = 0
KCA1 230333Z 35006KT 14/13 A3009 RMK A01 T01350131  RH  097%=      5-min Rain = 0
KCA1 230334Z 35007KT 14/13 A3009 RMK A01 T01350131  RH  097%=      5-min Rain = 0
KCA1 230335Z 35007KT 14/13 A3009 RMK A01 T01350131  RH  097%=      5-min Rain = 0
KCA1 230336Z 35007KT 14/13 A3009 RMK A01 T01350131  RH  097%=      5-min Rain = 0
KCA1 230337Z 35007KT 14/13 A3008 RMK A01 T01350131  RH  097%=      5-min Rain = 0
KCA1 230338Z 34007KT 14/13 A3008 RMK A01 T01350131  RH  097%=      5-min Rain = 0
KCA1 230339Z 35007KT 14/13 A3008 RMK A01 T01350131  RH  097%=      5-min Rain = 0
KCA1 230340Z 35007KT 14/13 A3008 RMK A01 T01350131  RH  097%=      5-min Rain = 0
KCA1 230341Z 35008KT 14/13 A3008 RMK A01 T01350130  RH  097%=      5-min Rain = 0
KCA1 230342Z 35008KT 14/13 A3008 RMK A01 T01350131  RH  097%=      5-min Rain = 0
KCA1 230343Z 35008KT 14/13 A3008 RMK A01 T01350130  RH  097%=      5-min Rain = 0
KCA1 230344Z 35009KT 14/13 A3007 RMK A01 T01350130  RH  097%=      5-min Rain = 0
KCA1 230345Z 35009KT 13/13 A3007 RMK A01 T01340130  RH  097%=      5-min Rain = 0
KCA1 230346Z 36008KT 13/13 A3007 RMK A01 T01340130  RH  097%=      5-min Rain = 0
KCA1 230347Z 35008KT 14/13 A3007 RMK A01 T01350130  RH  097%=      5-min Rain = 0
KCA1 230348Z 35008KT 13/13 A3007 RMK A01 T01340130  RH  097%=      5-min Rain = 0
KCA1 230349Z 35007KT 13/13 A3007 RMK A01 T01340130  RH  097%=      5-min Rain = 0
KCA1 230350Z 35008KT 13/13 A3007 RMK A01 T01340130  RH  097%=      5-min Rain = 0
KCA1 230351Z 35008KT 13/13 A3007 RMK A01 T01340129  RH  097%=      5-min Rain = 0
KCA1 230352Z 36007KT 14/13 A3008 RMK A01 T01350129  RH  096%=      5-min Rain = 0
KCA1 230353Z 35007KT 14/13 A3008 RMK A01 T01350129  RH  096%=      5-min Rain = 0
KCA1 230354Z 36007KT 14/13 A3008 RMK A01 T01350129  RH  096%=      5-min Rain = 0
KCA1 230355Z 35007KT 14/13 A3008 RMK A01 T01350129  RH  096%=      5-min Rain = 0
KCA1 230356Z 36007KT 14/13 A3007 RMK A01 T01350129  RH  096%=      5-min Rain = 0
KCA1 230357Z 35008KT 14/13 A3007 RMK A01 T01350129  RH  096%=      5-min Rain = 0
KCA1 230358Z 35008KT 14/13 A3007 RMK A01 T01350129  RH  096%=      5-min Rain = 0
KCA1 230359Z 35008KT 14/13 A3007 RMK A01 T01350129  RH  096%=      5-min Rain = 0
KCA1 230400Z 35008KT 14/13 A3007 RMK A01 T01350129  RH  096%=      5-min Rain = 0
KCA1 230401Z 35008KT 14/13 A3007 RMK A01 T01350129  RH  096%=      5-min Rain = 0
KCA1 230402Z 35008KT 14/13 A3007 RMK A01 T01350128  RH  096%=      5-min Rain = 0
KCA1 230403Z 35008KT 14/13 A3007 RMK A01 T01350128  RH  096%=      5-min Rain = 0
KCA1 230404Z 35008KT 14/13 A3007 RMK A01 T01350128  RH  096%=      5-min Rain = 0
KCA1 230405Z 35008KT 14/13 A3007 RMK A01 T01350128  RH  096%=      5-min Rain = 0
KCA1 230406Z 35009KT 14/13 A3007 RMK A01 T01350127  RH  095%=      5-min Rain = 0
KCA1 230407Z 35008KT 14/13 A3007 RMK A01 T01350126  RH  095%=      5-min Rain = 0
KCA1 230408Z 36009KT 14/13 A3007 RMK A01 T01350127  RH  095%=      5-min Rain = 0
KCA1 230409Z 36009KT 14/13 A3006 RMK A01 T01350126  RH  094%=      5-min Rain = 0
KCA1 230410Z 35009KT 14/13 A3006 RMK A01 T01350126  RH  094%=      5-min Rain = 0
KCA1 230411Z 36010KT 14/13 A3006 RMK A01 T01350126  RH  094%=      5-min Rain = 0
KCA1 230412Z 00009KT 14/13 A3006 RMK A01 T01350125  RH  094%=      5-min Rain = 0
KCA1 230413Z 00010KT 14/13 A3006 RMK A01 T01350125  RH  093%=      5-min Rain = 0
KCA1 230414Z 01010KT 14/12 A3006 RMK A01 T01350124  RH  093%=      5-min Rain = 0
KCA1 230415Z 01011KT 14/12 A3006 RMK A01 T01360124  RH  093%=      5-min Rain = 0
KCA1 230416Z 00010KT 14/12 A3006 RMK A01 T01360124  RH  092%=      5-min Rain = 0
KCA1 230417Z 01009KT 14/12 A3006 RMK A01 T01360124  RH  092%=      5-min Rain = 0
KCA1 230418Z 01010KT 14/12 A3006 RMK A01 T01370124  RH  092%=      5-min Rain = 0
KCA1 230419Z 01010KT 14/12 A3006 RMK A01 T01360123  RH  092%=      5-min Rain = 0
KCA1 230420Z 01009KT 14/12 A3006 RMK A01 T01370123  RH  091%=      5-min Rain = 0
KCA1 230421Z 01009KT 14/12 A3006 RMK A01 T01370123  RH  091%=      5-min Rain = 0
KCA1 230422Z 01010KT 14/12 A3006 RMK A01 T01370123  RH  091%=      5-min Rain = 0
KCA1 230423Z 01010KT 14/12 A3006 RMK A01 T01370122  RH  091%=      5-min Rain = 0
KCA1 230424Z 00009KT 14/12 A3005 RMK A01 T01370123  RH  091%=      5-min Rain = 0
KCA1 230425Z 00010KT 14/12 A3005 RMK A01 T01370123  RH  091%=      5-min Rain = 0
KCA1 230426Z 01011KT 14/12 A3005 RMK A01 T01370123  RH  091%=      5-min Rain = 0
KCA1 230427Z 00010KT 14/12 A3005 RMK A01 T01370123  RH  091%=      5-min Rain = 0
KCA1 230428Z 00011KT 14/12 A3005 RMK A01 T01370123  RH  091%=      5-min Rain = 0
KCA1 230429Z 01010KT 14/12 A3005 RMK A01 T01370123  RH  091%=      5-min Rain = 0
KCA1 230430Z 00012KT 14/12 A3005 RMK A01 T01370123  RH  091%=      5-min Rain = 0
KCA1 230431Z 00012KT 14/12 A3005 RMK A01 T01370122  RH  091%=      5-min Rain = 0
KCA1 230432Z 00011KT 14/12 A3005 RMK A01 T01370122  RH  091%=      5-min Rain = 0
KCA1 230433Z 01011KT 14/12 A3005 RMK A01 T01370122  RH  091%=      5-min Rain = 0
KCA1 230434Z 00011KT 14/12 A3005 RMK A01 T01370122  RH  091%=      5-min Rain = 0
KCA1 230435Z 01011KT 14/12 A3005 RMK A01 T01370122  RH  091%=      5-min Rain = 0
KCA1 230436Z 01010KT 14/12 A3005 RMK A01 T01370122  RH  091%=      5-min Rain = 0
KCA1 230437Z 01010KT 14/12 A3005 RMK A01 T01380122  RH  091%=      5-min Rain = 0
KCA1 230438Z 01010KT 14/12 A3005 RMK A01 T01370122  RH  091%=      5-min Rain = 0
KCA1 230439Z 01010KT 14/12 A3005 RMK A01 T01370122  RH  090%=      5-min Rain = 0
KCA1 230440Z 01010KT 14/12 A3005 RMK A01 T01370122  RH  090%=      5-min Rain = 0
KCA1 230441Z 01010KT 14/12 A3005 RMK A01 T01380122  RH  090%=      5-min Rain = 0
KCA1 230442Z 01010KT 14/12 A3005 RMK A01 T01380122  RH  090%=      5-min Rain = 0
KCA1 230443Z 01009KT 14/12 A3005 RMK A01 T01380122  RH  090%=      5-min Rain = 0
KCA1 230444Z 01010KT 14/12 A3005 RMK A01 T01380122  RH  090%=      5-min Rain = 0
KCA1 230445Z 01010KT 14/12 A3005 RMK A01 T01380122  RH  090%=      5-min Rain = 0
KCA1 230446Z 01010KT 14/12 A3005 RMK A01 T01380122  RH  090%=      5-min Rain = 0
KCA1 230447Z 01010KT 14/12 A3005 RMK A01 T01380122  RH  090%=      5-min Rain = 0
KCA1 230448Z 01011KT 14/12 A3005 RMK A01 T01380122  RH  090%=      5-min Rain = 0
KCA1 230449Z 00010KT 14/12 A3005 RMK A01 T01380121  RH  090%=      5-min Rain = 0
KCA1 230450Z 00010KT 14/12 A3005 RMK A01 T01380122  RH  090%=      5-min Rain = 0
KCA1 230451Z 00010KT 14/12 A3005 RMK A01 T01380122  RH  090%=      5-min Rain = 0
KCA1 230452Z 01010KT 14/12 A3005 RMK A01 T01380122  RH  090%=      5-min Rain = 0
KCA1 230453Z 01010KT 14/12 A3005 RMK A01 T01380121  RH  090%=      5-min Rain = 0
KCA1 230454Z 00010KT 14/12 A3005 RMK A01 T01380122  RH  090%=      5-min Rain = 0
KCA1 230455Z 01010KT 14/12 A3005 RMK A01 T01380122  RH  090%=      5-min Rain = 0
KCA1 230456Z 01010KT 14/12 A3005 RMK A01 T01380122  RH  090%=      5-min Rain = 0
KCA1 230457Z 01009KT 14/12 A3005 RMK A01 T01380122  RH  090%=      5-min Rain = 0
KCA1 230458Z 01010KT 14/12 A3005 RMK A01 T01380122  RH  090%=      5-min Rain = 0
KCA1 230459Z 01009KT 14/12 A3005 RMK A01 T01390121  RH  089%=      5-min Rain = 0

Page generated in 0.0885 seconds.